<?xml version="1.0" encoding="UTF-8" standalone="no" ?>
<gpx xmlns="http://www.topografix.com/GPX/1/1" xmlns:xsi="http://www.w3.org/2001/XMLSchema-instance" xsi:schemaLocation="http://www.topografix.com/GPX/1/1 http://www.topografix.com/GPX/1/1/gpx.xsd" version="1.1" creator="VisuGPX - https://www.visugpx.com">
  <metadata>
    <name>Randonnée des Lapins</name>
    <desc><![CDATA[Au départ du Col Fût d\'Avenas]]></desc>
  </metadata>
  <trk>
    <name><![CDATA[Randonnée des Lapins]]></name>
    <trkseg>
      <trkpt lat="46.19222" lon="4.61774">
        <ele>743.296</ele>
        <time>2014-05-25T10:21:46Z</time>
      </trkpt>
      <trkpt lat="46.19232" lon="4.61756">
        <ele>742.602</ele>
        <time>2014-05-25T10:22:05Z</time>
      </trkpt>
      <trkpt lat="46.19244" lon="4.61738">
        <ele>741.438</ele>
        <time>2014-05-25T10:22:22Z</time>
      </trkpt>
      <trkpt lat="46.19252" lon="4.61728">
        <ele>740.581</ele>
        <time>2014-05-25T10:22:31Z</time>
      </trkpt>
      <trkpt lat="46.19264" lon="4.61715">
        <ele>739.571</ele>
        <time>2014-05-25T10:22:44Z</time>
      </trkpt>
      <trkpt lat="46.19278" lon="4.61702">
        <ele>737.814</ele>
        <time>2014-05-25T10:23:03Z</time>
      </trkpt>
      <trkpt lat="46.19297" lon="4.61687">
        <ele>736.747</ele>
        <time>2014-05-25T10:23:19Z</time>
      </trkpt>
      <trkpt lat="46.19317" lon="4.61667">
        <ele>735.632</ele>
        <time>2014-05-25T10:23:43Z</time>
      </trkpt>
      <trkpt lat="46.19322" lon="4.61664">
        <ele>735.162</ele>
        <time>2014-05-25T10:23:51Z</time>
      </trkpt>
      <trkpt lat="46.19328" lon="4.61659">
        <ele>734.172</ele>
        <time>2014-05-25T10:23:58Z</time>
      </trkpt>
      <trkpt lat="46.1934" lon="4.61648">
        <ele>733.396</ele>
        <time>2014-05-25T10:24:10Z</time>
      </trkpt>
      <trkpt lat="46.19353" lon="4.61641">
        <ele>732.147</ele>
        <time>2014-05-25T10:24:23Z</time>
      </trkpt>
      <trkpt lat="46.1936" lon="4.61634">
        <ele>730.95</ele>
        <time>2014-05-25T10:24:33Z</time>
      </trkpt>
      <trkpt lat="46.19381" lon="4.61619">
        <ele>729.888</ele>
        <time>2014-05-25T10:24:53Z</time>
      </trkpt>
      <trkpt lat="46.19392" lon="4.61613">
        <ele>729.869</ele>
        <time>2014-05-25T10:25:04Z</time>
      </trkpt>
      <trkpt lat="46.19395" lon="4.61614">
        <ele>729.045</ele>
        <time>2014-05-25T10:25:06Z</time>
      </trkpt>
      <trkpt lat="46.19418" lon="4.61595">
        <ele>726.935</ele>
        <time>2014-05-25T10:25:32Z</time>
      </trkpt>
      <trkpt lat="46.1943" lon="4.61584">
        <ele>725.099</ele>
        <time>2014-05-25T10:25:44Z</time>
      </trkpt>
      <trkpt lat="46.1945" lon="4.61566">
        <ele>723.69</ele>
        <time>2014-05-25T10:26:06Z</time>
      </trkpt>
      <trkpt lat="46.19475" lon="4.61549">
        <ele>722</ele>
        <time>2014-05-25T10:26:31Z</time>
      </trkpt>
      <trkpt lat="46.19496" lon="4.61532">
        <ele>720.753</ele>
        <time>2014-05-25T10:26:53Z</time>
      </trkpt>
      <trkpt lat="46.19513" lon="4.61519">
        <ele>719.885</ele>
        <time>2014-05-25T10:27:10Z</time>
      </trkpt>
      <trkpt lat="46.19534" lon="4.61503">
        <ele>718.553</ele>
        <time>2014-05-25T10:27:31Z</time>
      </trkpt>
      <trkpt lat="46.19545" lon="4.61497">
        <ele>718.089</ele>
        <time>2014-05-25T10:27:42Z</time>
      </trkpt>
      <trkpt lat="46.19553" lon="4.61496">
        <ele>718.14</ele>
        <time>2014-05-25T10:27:48Z</time>
      </trkpt>
      <trkpt lat="46.19555" lon="4.61494">
        <ele>716.949</ele>
        <time>2014-05-25T10:27:50Z</time>
      </trkpt>
      <trkpt lat="46.19558" lon="4.61493">
        <ele>718.482</ele>
        <time>2014-05-25T10:27:53Z</time>
      </trkpt>
      <trkpt lat="46.1956" lon="4.61491">
        <ele>717.634</ele>
        <time>2014-05-25T10:27:55Z</time>
      </trkpt>
      <trkpt lat="46.19564" lon="4.61484">
        <ele>716.682</ele>
        <time>2014-05-25T10:28:00Z</time>
      </trkpt>
      <trkpt lat="46.19575" lon="4.61469">
        <ele>716.037</ele>
        <time>2014-05-25T10:28:12Z</time>
      </trkpt>
      <trkpt lat="46.19583" lon="4.6147">
        <ele>715.392</ele>
        <time>2014-05-25T10:28:34Z</time>
      </trkpt>
      <trkpt lat="46.19587" lon="4.61468">
        <ele>715.433</ele>
        <time>2014-05-25T10:29:02Z</time>
      </trkpt>
      <trkpt lat="46.19594" lon="4.61458">
        <ele>714.864</ele>
        <time>2014-05-25T10:29:10Z</time>
      </trkpt>
      <trkpt lat="46.1961" lon="4.61442">
        <ele>713.171</ele>
        <time>2014-05-25T10:29:25Z</time>
      </trkpt>
      <trkpt lat="46.19615" lon="4.61438">
        <ele>712.855</ele>
        <time>2014-05-25T10:29:29Z</time>
      </trkpt>
      <trkpt lat="46.19619" lon="4.61436">
        <ele>712.429</ele>
        <time>2014-05-25T10:29:32Z</time>
      </trkpt>
      <trkpt lat="46.19625" lon="4.61435">
        <ele>712.253</ele>
        <time>2014-05-25T10:29:36Z</time>
      </trkpt>
      <trkpt lat="46.1964" lon="4.61426">
        <ele>710.54</ele>
        <time>2014-05-25T10:29:49Z</time>
      </trkpt>
      <trkpt lat="46.19643" lon="4.61422">
        <ele>709.666</ele>
        <time>2014-05-25T10:29:53Z</time>
      </trkpt>
      <trkpt lat="46.19645" lon="4.61415">
        <ele>709.78</ele>
        <time>2014-05-25T10:29:56Z</time>
      </trkpt>
      <trkpt lat="46.19653" lon="4.61411">
        <ele>708.548</ele>
        <time>2014-05-25T10:30:02Z</time>
      </trkpt>
      <trkpt lat="46.19664" lon="4.61401">
        <ele>707.402</ele>
        <time>2014-05-25T10:30:17Z</time>
      </trkpt>
      <trkpt lat="46.1969" lon="4.61378">
        <ele>706.067</ele>
        <time>2014-05-25T10:30:48Z</time>
      </trkpt>
      <trkpt lat="46.19704" lon="4.6136">
        <ele>705.676</ele>
        <time>2014-05-25T10:31:05Z</time>
      </trkpt>
      <trkpt lat="46.19711" lon="4.61354">
        <ele>705.015</ele>
        <time>2014-05-25T10:31:11Z</time>
      </trkpt>
      <trkpt lat="46.19715" lon="4.61354">
        <ele>705.129</ele>
        <time>2014-05-25T10:31:14Z</time>
      </trkpt>
      <trkpt lat="46.19729" lon="4.61349">
        <ele>704.443</ele>
        <time>2014-05-25T10:31:26Z</time>
      </trkpt>
      <trkpt lat="46.19732" lon="4.61346">
        <ele>704.067</ele>
        <time>2014-05-25T10:31:28Z</time>
      </trkpt>
      <trkpt lat="46.19735" lon="4.61343">
        <ele>703.883</ele>
        <time>2014-05-25T10:31:31Z</time>
      </trkpt>
      <trkpt lat="46.19747" lon="4.61329">
        <ele>702.931</ele>
        <time>2014-05-25T10:31:45Z</time>
      </trkpt>
      <trkpt lat="46.1975" lon="4.61325">
        <ele>702.579</ele>
        <time>2014-05-25T10:31:49Z</time>
      </trkpt>
      <trkpt lat="46.19748" lon="4.61322">
        <ele>702.186</ele>
        <time>2014-05-25T10:31:51Z</time>
      </trkpt>
      <trkpt lat="46.19753" lon="4.61316">
        <ele>701.927</ele>
        <time>2014-05-25T10:31:56Z</time>
      </trkpt>
      <trkpt lat="46.19769" lon="4.61297">
        <ele>701.292</ele>
        <time>2014-05-25T10:32:13Z</time>
      </trkpt>
      <trkpt lat="46.19773" lon="4.61281">
        <ele>699.951</ele>
        <time>2014-05-25T10:32:24Z</time>
      </trkpt>
      <trkpt lat="46.1978" lon="4.61276">
        <ele>699.757</ele>
        <time>2014-05-25T10:32:31Z</time>
      </trkpt>
      <trkpt lat="46.19794" lon="4.61262">
        <ele>697.685</ele>
        <time>2014-05-25T10:32:48Z</time>
      </trkpt>
      <trkpt lat="46.19806" lon="4.61248">
        <ele>697.256</ele>
        <time>2014-05-25T10:33:02Z</time>
      </trkpt>
      <trkpt lat="46.19811" lon="4.61241">
        <ele>697.235</ele>
        <time>2014-05-25T10:33:08Z</time>
      </trkpt>
      <trkpt lat="46.19822" lon="4.61234">
        <ele>696.48</ele>
        <time>2014-05-25T10:33:20Z</time>
      </trkpt>
      <trkpt lat="46.19826" lon="4.6122">
        <ele>695.558</ele>
        <time>2014-05-25T10:33:30Z</time>
      </trkpt>
      <trkpt lat="46.19833" lon="4.6121">
        <ele>694.896</ele>
        <time>2014-05-25T10:33:37Z</time>
      </trkpt>
      <trkpt lat="46.19842" lon="4.61194">
        <ele>694.02</ele>
        <time>2014-05-25T10:33:50Z</time>
      </trkpt>
      <trkpt lat="46.19849" lon="4.61184">
        <ele>693.29</ele>
        <time>2014-05-25T10:34:00Z</time>
      </trkpt>
      <trkpt lat="46.19859" lon="4.61169">
        <ele>692.715</ele>
        <time>2014-05-25T10:34:13Z</time>
      </trkpt>
      <trkpt lat="46.19865" lon="4.61158">
        <ele>692.457</ele>
        <time>2014-05-25T10:34:29Z</time>
      </trkpt>
      <trkpt lat="46.19861" lon="4.61156">
        <ele>692.721</ele>
        <time>2014-05-25T10:34:45Z</time>
      </trkpt>
      <trkpt lat="46.19864" lon="4.61152">
        <ele>691.832</ele>
        <time>2014-05-25T10:35:34Z</time>
      </trkpt>
      <trkpt lat="46.19869" lon="4.61145">
        <ele>691.626</ele>
        <time>2014-05-25T10:35:40Z</time>
      </trkpt>
      <trkpt lat="46.19871" lon="4.61142">
        <ele>691.847</ele>
        <time>2014-05-25T10:35:42Z</time>
      </trkpt>
      <trkpt lat="46.19875" lon="4.61136">
        <ele>691.544</ele>
        <time>2014-05-25T10:35:47Z</time>
      </trkpt>
      <trkpt lat="46.1988" lon="4.6113">
        <ele>691.251</ele>
        <time>2014-05-25T10:35:53Z</time>
      </trkpt>
      <trkpt lat="46.19884" lon="4.61122">
        <ele>691.199</ele>
        <time>2014-05-25T10:35:59Z</time>
      </trkpt>
      <trkpt lat="46.1989" lon="4.61116">
        <ele>690.092</ele>
        <time>2014-05-25T10:36:05Z</time>
      </trkpt>
      <trkpt lat="46.19898" lon="4.61106">
        <ele>689.475</ele>
        <time>2014-05-25T10:36:14Z</time>
      </trkpt>
      <trkpt lat="46.19904" lon="4.611">
        <ele>689.323</ele>
        <time>2014-05-25T10:36:20Z</time>
      </trkpt>
      <trkpt lat="46.19919" lon="4.61083">
        <ele>686.506</ele>
        <time>2014-05-25T10:36:40Z</time>
      </trkpt>
      <trkpt lat="46.19938" lon="4.61074">
        <ele>684.066</ele>
        <time>2014-05-25T10:37:00Z</time>
      </trkpt>
      <trkpt lat="46.19962" lon="4.61073">
        <ele>681.393</ele>
        <time>2014-05-25T10:37:22Z</time>
      </trkpt>
      <trkpt lat="46.19982" lon="4.61076">
        <ele>680.199</ele>
        <time>2014-05-25T10:37:38Z</time>
      </trkpt>
      <trkpt lat="46.19985" lon="4.61077">
        <ele>680.195</ele>
        <time>2014-05-25T10:37:41Z</time>
      </trkpt>
      <trkpt lat="46.19989" lon="4.61079">
        <ele>679.181</ele>
        <time>2014-05-25T10:37:45Z</time>
      </trkpt>
      <trkpt lat="46.20007" lon="4.61085">
        <ele>677.501</ele>
        <time>2014-05-25T10:38:01Z</time>
      </trkpt>
      <trkpt lat="46.20012" lon="4.61087">
        <ele>676.818</ele>
        <time>2014-05-25T10:38:07Z</time>
      </trkpt>
      <trkpt lat="46.20026" lon="4.61084">
        <ele>675.741</ele>
        <time>2014-05-25T10:38:21Z</time>
      </trkpt>
      <trkpt lat="46.2003" lon="4.61082">
        <ele>675.326</ele>
        <time>2014-05-25T10:38:25Z</time>
      </trkpt>
      <trkpt lat="46.20044" lon="4.61074">
        <ele>673.443</ele>
        <time>2014-05-25T10:38:40Z</time>
      </trkpt>
      <trkpt lat="46.20054" lon="4.61066">
        <ele>673.239</ele>
        <time>2014-05-25T10:38:51Z</time>
      </trkpt>
      <trkpt lat="46.20055" lon="4.61064">
        <ele>672.47</ele>
        <time>2014-05-25T10:38:53Z</time>
      </trkpt>
      <trkpt lat="46.2007" lon="4.61045">
        <ele>670.987</ele>
        <time>2014-05-25T10:39:11Z</time>
      </trkpt>
      <trkpt lat="46.20079" lon="4.61024">
        <ele>669.476</ele>
        <time>2014-05-25T10:39:29Z</time>
      </trkpt>
      <trkpt lat="46.20081" lon="4.61016">
        <ele>668.424</ele>
        <time>2014-05-25T10:39:34Z</time>
      </trkpt>
      <trkpt lat="46.20084" lon="4.61011">
        <ele>667.999</ele>
        <time>2014-05-25T10:39:38Z</time>
      </trkpt>
      <trkpt lat="46.20096" lon="4.60981">
        <ele>665.883</ele>
        <time>2014-05-25T10:39:59Z</time>
      </trkpt>
      <trkpt lat="46.20101" lon="4.60974">
        <ele>665.475</ele>
        <time>2014-05-25T10:40:17Z</time>
      </trkpt>
      <trkpt lat="46.20102" lon="4.60967">
        <ele>666.038</ele>
        <time>2014-05-25T10:40:43Z</time>
      </trkpt>
      <trkpt lat="46.20109" lon="4.60954">
        <ele>665.456</ele>
        <time>2014-05-25T10:40:51Z</time>
      </trkpt>
      <trkpt lat="46.20124" lon="4.60919">
        <ele>662.546</ele>
        <time>2014-05-25T10:41:13Z</time>
      </trkpt>
      <trkpt lat="46.20146" lon="4.60893">
        <ele>659.264</ele>
        <time>2014-05-25T10:41:34Z</time>
      </trkpt>
      <trkpt lat="46.20157" lon="4.60878">
        <ele>658.232</ele>
        <time>2014-05-25T10:41:47Z</time>
      </trkpt>
      <trkpt lat="46.2016" lon="4.60874">
        <ele>657.175</ele>
        <time>2014-05-25T10:41:51Z</time>
      </trkpt>
      <trkpt lat="46.20167" lon="4.60865">
        <ele>656.108</ele>
        <time>2014-05-25T10:42:00Z</time>
      </trkpt>
      <trkpt lat="46.20169" lon="4.60863">
        <ele>655.86</ele>
        <time>2014-05-25T10:42:03Z</time>
      </trkpt>
      <trkpt lat="46.20174" lon="4.60856">
        <ele>655.166</ele>
        <time>2014-05-25T10:42:09Z</time>
      </trkpt>
      <trkpt lat="46.20177" lon="4.60854">
        <ele>654.992</ele>
        <time>2014-05-25T10:42:12Z</time>
      </trkpt>
      <trkpt lat="46.20185" lon="4.60841">
        <ele>653.636</ele>
        <time>2014-05-25T10:42:23Z</time>
      </trkpt>
      <trkpt lat="46.202" lon="4.60822">
        <ele>651.221</ele>
        <time>2014-05-25T10:42:40Z</time>
      </trkpt>
      <trkpt lat="46.20204" lon="4.60817">
        <ele>650.398</ele>
        <time>2014-05-25T10:42:45Z</time>
      </trkpt>
      <trkpt lat="46.20222" lon="4.60796">
        <ele>648.493</ele>
        <time>2014-05-25T10:43:06Z</time>
      </trkpt>
      <trkpt lat="46.2023" lon="4.60786">
        <ele>647.095</ele>
        <time>2014-05-25T10:43:16Z</time>
      </trkpt>
      <trkpt lat="46.2024" lon="4.60775">
        <ele>646.343</ele>
        <time>2014-05-25T10:43:26Z</time>
      </trkpt>
      <trkpt lat="46.20257" lon="4.60777">
        <ele>644.998</ele>
        <time>2014-05-25T10:43:45Z</time>
      </trkpt>
      <trkpt lat="46.20277" lon="4.60795">
        <ele>643.654</ele>
        <time>2014-05-25T10:44:07Z</time>
      </trkpt>
      <trkpt lat="46.203" lon="4.60811">
        <ele>641.82</ele>
        <time>2014-05-25T10:44:31Z</time>
      </trkpt>
      <trkpt lat="46.20314" lon="4.60819">
        <ele>640.976</ele>
        <time>2014-05-25T10:44:46Z</time>
      </trkpt>
      <trkpt lat="46.20329" lon="4.60829">
        <ele>639.033</ele>
        <time>2014-05-25T10:45:04Z</time>
      </trkpt>
      <trkpt lat="46.20341" lon="4.60836">
        <ele>637.32</ele>
        <time>2014-05-25T10:45:17Z</time>
      </trkpt>
      <trkpt lat="46.20353" lon="4.60844">
        <ele>635.24</ele>
        <time>2014-05-25T10:45:29Z</time>
      </trkpt>
      <trkpt lat="46.2036" lon="4.60843">
        <ele>633.919</ele>
        <time>2014-05-25T10:45:37Z</time>
      </trkpt>
      <trkpt lat="46.20377" lon="4.60843">
        <ele>632.196</ele>
        <time>2014-05-25T10:45:50Z</time>
      </trkpt>
      <trkpt lat="46.20381" lon="4.6084">
        <ele>631.057</ele>
        <time>2014-05-25T10:45:57Z</time>
      </trkpt>
      <trkpt lat="46.20403" lon="4.60836">
        <ele>627.764</ele>
        <time>2014-05-25T10:46:17Z</time>
      </trkpt>
      <trkpt lat="46.20412" lon="4.60835">
        <ele>626.694</ele>
        <time>2014-05-25T10:46:26Z</time>
      </trkpt>
      <trkpt lat="46.20428" lon="4.60822">
        <ele>624.498</ele>
        <time>2014-05-25T10:46:43Z</time>
      </trkpt>
      <trkpt lat="46.2043" lon="4.60821">
        <ele>624.175</ele>
        <time>2014-05-25T10:46:45Z</time>
      </trkpt>
      <trkpt lat="46.20445" lon="4.60808">
        <ele>622.354</ele>
        <time>2014-05-25T10:46:59Z</time>
      </trkpt>
      <trkpt lat="46.20462" lon="4.6079">
        <ele>619.596</ele>
        <time>2014-05-25T10:47:20Z</time>
      </trkpt>
      <trkpt lat="46.20464" lon="4.60784">
        <ele>619.07</ele>
        <time>2014-05-25T10:47:33Z</time>
      </trkpt>
      <trkpt lat="46.20464" lon="4.60779">
        <ele>619.138</ele>
        <time>2014-05-25T10:47:49Z</time>
      </trkpt>
      <trkpt lat="46.20461" lon="4.60769">
        <ele>617.527</ele>
        <time>2014-05-25T10:48:06Z</time>
      </trkpt>
      <trkpt lat="46.20442" lon="4.60749">
        <ele>614.883</ele>
        <time>2014-05-25T10:48:28Z</time>
      </trkpt>
      <trkpt lat="46.20441" lon="4.6073">
        <ele>611.122</ele>
        <time>2014-05-25T10:48:40Z</time>
      </trkpt>
      <trkpt lat="46.20442" lon="4.60726">
        <ele>611.042</ele>
        <time>2014-05-25T10:48:42Z</time>
      </trkpt>
      <trkpt lat="46.20445" lon="4.60707">
        <ele>609.116</ele>
        <time>2014-05-25T10:48:56Z</time>
      </trkpt>
      <trkpt lat="46.20466" lon="4.60681">
        <ele>605.533</ele>
        <time>2014-05-25T10:49:19Z</time>
      </trkpt>
      <trkpt lat="46.20472" lon="4.60675">
        <ele>605.196</ele>
        <time>2014-05-25T10:50:53Z</time>
      </trkpt>
      <trkpt lat="46.20488" lon="4.60685">
        <ele>606.318</ele>
        <time>2014-05-25T10:51:08Z</time>
      </trkpt>
      <trkpt lat="46.205" lon="4.60687">
        <ele>607.253</ele>
        <time>2014-05-25T10:51:21Z</time>
      </trkpt>
      <trkpt lat="46.20526" lon="4.60683">
        <ele>607.053</ele>
        <time>2014-05-25T10:51:45Z</time>
      </trkpt>
      <trkpt lat="46.20532" lon="4.60681">
        <ele>607.254</ele>
        <time>2014-05-25T10:51:59Z</time>
      </trkpt>
      <trkpt lat="46.20534" lon="4.60678">
        <ele>607.254</ele>
        <time>2014-05-25T10:52:17Z</time>
      </trkpt>
      <trkpt lat="46.2054" lon="4.60678">
        <ele>607.539</ele>
        <time>2014-05-25T10:52:35Z</time>
      </trkpt>
      <trkpt lat="46.20545" lon="4.60679">
        <ele>607.863</ele>
        <time>2014-05-25T10:52:40Z</time>
      </trkpt>
      <trkpt lat="46.20553" lon="4.60678">
        <ele>607.671</ele>
        <time>2014-05-25T10:52:48Z</time>
      </trkpt>
      <trkpt lat="46.20574" lon="4.60679">
        <ele>606.257</ele>
        <time>2014-05-25T10:53:11Z</time>
      </trkpt>
      <trkpt lat="46.20577" lon="4.6068">
        <ele>605.944</ele>
        <time>2014-05-25T10:53:40Z</time>
      </trkpt>
      <trkpt lat="46.20581" lon="4.60683">
        <ele>606.151</ele>
        <time>2014-05-25T10:53:44Z</time>
      </trkpt>
      <trkpt lat="46.20591" lon="4.60692">
        <ele>603.682</ele>
        <time>2014-05-25T10:53:55Z</time>
      </trkpt>
      <trkpt lat="46.20592" lon="4.60699">
        <ele>603</ele>
        <time>2014-05-25T10:53:59Z</time>
      </trkpt>
      <trkpt lat="46.20594" lon="4.60708">
        <ele>602.711</ele>
        <time>2014-05-25T10:54:13Z</time>
      </trkpt>
      <trkpt lat="46.20595" lon="4.60711">
        <ele>602.615</ele>
        <time>2014-05-25T10:54:23Z</time>
      </trkpt>
      <trkpt lat="46.2059" lon="4.60723">
        <ele>603.433</ele>
        <time>2014-05-25T10:54:32Z</time>
      </trkpt>
      <trkpt lat="46.20588" lon="4.60729">
        <ele>603.501</ele>
        <time>2014-05-25T10:54:37Z</time>
      </trkpt>
      <trkpt lat="46.20582" lon="4.60742">
        <ele>604.609</ele>
        <time>2014-05-25T10:54:50Z</time>
      </trkpt>
      <trkpt lat="46.20578" lon="4.60743">
        <ele>604.799</ele>
        <time>2014-05-25T10:55:04Z</time>
      </trkpt>
      <trkpt lat="46.20572" lon="4.60755">
        <ele>605.28</ele>
        <time>2014-05-25T10:55:16Z</time>
      </trkpt>
      <trkpt lat="46.20569" lon="4.60758">
        <ele>605.54</ele>
        <time>2014-05-25T10:55:19Z</time>
      </trkpt>
      <trkpt lat="46.20569" lon="4.60763">
        <ele>604.983</ele>
        <time>2014-05-25T10:55:22Z</time>
      </trkpt>
      <trkpt lat="46.20568" lon="4.60768">
        <ele>604.125</ele>
        <time>2014-05-25T10:55:25Z</time>
      </trkpt>
      <trkpt lat="46.20567" lon="4.60781">
        <ele>603.098</ele>
        <time>2014-05-25T10:55:34Z</time>
      </trkpt>
      <trkpt lat="46.20566" lon="4.60784">
        <ele>602.88</ele>
        <time>2014-05-25T10:55:36Z</time>
      </trkpt>
      <trkpt lat="46.20564" lon="4.60789">
        <ele>602.511</ele>
        <time>2014-05-25T10:55:40Z</time>
      </trkpt>
      <trkpt lat="46.20558" lon="4.60806">
        <ele>600.251</ele>
        <time>2014-05-25T10:55:54Z</time>
      </trkpt>
      <trkpt lat="46.20556" lon="4.60811">
        <ele>599.474</ele>
        <time>2014-05-25T10:55:58Z</time>
      </trkpt>
      <trkpt lat="46.20555" lon="4.6083">
        <ele>598.287</ele>
        <time>2014-05-25T10:56:12Z</time>
      </trkpt>
      <trkpt lat="46.20559" lon="4.60835">
        <ele>597.298</ele>
        <time>2014-05-25T10:56:21Z</time>
      </trkpt>
      <trkpt lat="46.20571" lon="4.60841">
        <ele>595.201</ele>
        <time>2014-05-25T10:56:34Z</time>
      </trkpt>
      <trkpt lat="46.2058" lon="4.60846">
        <ele>593.902</ele>
        <time>2014-05-25T10:56:48Z</time>
      </trkpt>
      <trkpt lat="46.20594" lon="4.60848">
        <ele>592.885</ele>
        <time>2014-05-25T10:57:01Z</time>
      </trkpt>
      <trkpt lat="46.20608" lon="4.60853">
        <ele>592.886</ele>
        <time>2014-05-25T10:57:16Z</time>
      </trkpt>
      <trkpt lat="46.20622" lon="4.60853">
        <ele>594.069</ele>
        <time>2014-05-25T10:57:32Z</time>
      </trkpt>
      <trkpt lat="46.20635" lon="4.60846">
        <ele>595.839</ele>
        <time>2014-05-25T10:57:45Z</time>
      </trkpt>
      <trkpt lat="46.20636" lon="4.60843">
        <ele>596.2</ele>
        <time>2014-05-25T10:57:48Z</time>
      </trkpt>
      <trkpt lat="46.20648" lon="4.60827">
        <ele>597.734</ele>
        <time>2014-05-25T10:58:08Z</time>
      </trkpt>
      <trkpt lat="46.20656" lon="4.60812">
        <ele>598.125</ele>
        <time>2014-05-25T10:58:28Z</time>
      </trkpt>
      <trkpt lat="46.20664" lon="4.60798">
        <ele>598.511</ele>
        <time>2014-05-25T10:58:46Z</time>
      </trkpt>
      <trkpt lat="46.2067" lon="4.60789">
        <ele>598.921</ele>
        <time>2014-05-25T10:58:58Z</time>
      </trkpt>
      <trkpt lat="46.20679" lon="4.60773">
        <ele>598.869</ele>
        <time>2014-05-25T10:59:13Z</time>
      </trkpt>
      <trkpt lat="46.20681" lon="4.60768">
        <ele>598.836</ele>
        <time>2014-05-25T10:59:16Z</time>
      </trkpt>
      <trkpt lat="46.20686" lon="4.60761">
        <ele>599.395</ele>
        <time>2014-05-25T10:59:22Z</time>
      </trkpt>
      <trkpt lat="46.20695" lon="4.60745">
        <ele>598.906</ele>
        <time>2014-05-25T10:59:43Z</time>
      </trkpt>
      <trkpt lat="46.20697" lon="4.60741">
        <ele>598.8</ele>
        <time>2014-05-25T11:00:38Z</time>
      </trkpt>
      <trkpt lat="46.20706" lon="4.60727">
        <ele>598.932</ele>
        <time>2014-05-25T11:00:55Z</time>
      </trkpt>
      <trkpt lat="46.20711" lon="4.60722">
        <ele>598.324</ele>
        <time>2014-05-25T11:01:33Z</time>
      </trkpt>
      <trkpt lat="46.20715" lon="4.6072">
        <ele>599.181</ele>
        <time>2014-05-25T11:01:51Z</time>
      </trkpt>
      <trkpt lat="46.2074" lon="4.60698">
        <ele>598.918</ele>
        <time>2014-05-25T11:02:24Z</time>
      </trkpt>
      <trkpt lat="46.20749" lon="4.60692">
        <ele>598.997</ele>
        <time>2014-05-25T11:02:32Z</time>
      </trkpt>
      <trkpt lat="46.20767" lon="4.60682">
        <ele>599.743</ele>
        <time>2014-05-25T11:02:47Z</time>
      </trkpt>
      <trkpt lat="46.20789" lon="4.60679">
        <ele>599.908</ele>
        <time>2014-05-25T11:03:06Z</time>
      </trkpt>
      <trkpt lat="46.20798" lon="4.60679">
        <ele>599.364</ele>
        <time>2014-05-25T11:03:24Z</time>
      </trkpt>
      <trkpt lat="46.20805" lon="4.60679">
        <ele>598.944</ele>
        <time>2014-05-25T11:06:17Z</time>
      </trkpt>
      <trkpt lat="46.2082" lon="4.60684">
        <ele>598.199</ele>
        <time>2014-05-25T11:06:36Z</time>
      </trkpt>
      <trkpt lat="46.20838" lon="4.60697">
        <ele>595.349</ele>
        <time>2014-05-25T11:07:00Z</time>
      </trkpt>
      <trkpt lat="46.20842" lon="4.60701">
        <ele>594.642</ele>
        <time>2014-05-25T11:07:04Z</time>
      </trkpt>
      <trkpt lat="46.20856" lon="4.60722">
        <ele>591.696</ele>
        <time>2014-05-25T11:07:25Z</time>
      </trkpt>
      <trkpt lat="46.20861" lon="4.60732">
        <ele>590.218</ele>
        <time>2014-05-25T11:07:41Z</time>
      </trkpt>
      <trkpt lat="46.20864" lon="4.60742">
        <ele>589.259</ele>
        <time>2014-05-25T11:07:58Z</time>
      </trkpt>
      <trkpt lat="46.20867" lon="4.60753">
        <ele>588.545</ele>
        <time>2014-05-25T11:08:05Z</time>
      </trkpt>
      <trkpt lat="46.2087" lon="4.60764">
        <ele>587.327</ele>
        <time>2014-05-25T11:08:22Z</time>
      </trkpt>
      <trkpt lat="46.20873" lon="4.60797">
        <ele>583.784</ele>
        <time>2014-05-25T11:08:40Z</time>
      </trkpt>
      <trkpt lat="46.20877" lon="4.60821">
        <ele>580.263</ele>
        <time>2014-05-25T11:08:55Z</time>
      </trkpt>
      <trkpt lat="46.20884" lon="4.60848">
        <ele>578.115</ele>
        <time>2014-05-25T11:09:13Z</time>
      </trkpt>
      <trkpt lat="46.20887" lon="4.60853">
        <ele>577.659</ele>
        <time>2014-05-25T11:09:18Z</time>
      </trkpt>
      <trkpt lat="46.20895" lon="4.60858">
        <ele>576.92</ele>
        <time>2014-05-25T11:09:27Z</time>
      </trkpt>
      <trkpt lat="46.20897" lon="4.60859">
        <ele>576.997</ele>
        <time>2014-05-25T11:09:29Z</time>
      </trkpt>
      <trkpt lat="46.20906" lon="4.60872">
        <ele>575.977</ele>
        <time>2014-05-25T11:09:42Z</time>
      </trkpt>
      <trkpt lat="46.20915" lon="4.60887">
        <ele>574.565</ele>
        <time>2014-05-25T11:09:57Z</time>
      </trkpt>
      <trkpt lat="46.20925" lon="4.60908">
        <ele>572.262</ele>
        <time>2014-05-25T11:10:13Z</time>
      </trkpt>
      <trkpt lat="46.20935" lon="4.6092">
        <ele>571.166</ele>
        <time>2014-05-25T11:10:24Z</time>
      </trkpt>
      <trkpt lat="46.20935" lon="4.60924">
        <ele>571.196</ele>
        <time>2014-05-25T11:10:29Z</time>
      </trkpt>
      <trkpt lat="46.20937" lon="4.60937">
        <ele>570.069</ele>
        <time>2014-05-25T11:10:41Z</time>
      </trkpt>
      <trkpt lat="46.20941" lon="4.60944">
        <ele>569.3</ele>
        <time>2014-05-25T11:10:51Z</time>
      </trkpt>
      <trkpt lat="46.20947" lon="4.60942">
        <ele>567.552</ele>
        <time>2014-05-25T11:10:59Z</time>
      </trkpt>
      <trkpt lat="46.20947" lon="4.60932">
        <ele>565.858</ele>
        <time>2014-05-25T11:11:12Z</time>
      </trkpt>
      <trkpt lat="46.20946" lon="4.60926">
        <ele>565.128</ele>
        <time>2014-05-25T11:11:15Z</time>
      </trkpt>
      <trkpt lat="46.20946" lon="4.60923">
        <ele>564.529</ele>
        <time>2014-05-25T11:11:17Z</time>
      </trkpt>
      <trkpt lat="46.20952" lon="4.60906">
        <ele>562.001</ele>
        <time>2014-05-25T11:11:29Z</time>
      </trkpt>
      <trkpt lat="46.20957" lon="4.60905">
        <ele>561.596</ele>
        <time>2014-05-25T11:11:34Z</time>
      </trkpt>
      <trkpt lat="46.20968" lon="4.60921">
        <ele>560.635</ele>
        <time>2014-05-25T11:11:49Z</time>
      </trkpt>
      <trkpt lat="46.20972" lon="4.60926">
        <ele>560.53</ele>
        <time>2014-05-25T11:12:02Z</time>
      </trkpt>
      <trkpt lat="46.20981" lon="4.60929">
        <ele>560.586</ele>
        <time>2014-05-25T11:12:17Z</time>
      </trkpt>
      <trkpt lat="46.20982" lon="4.60931">
        <ele>560.471</ele>
        <time>2014-05-25T11:12:34Z</time>
      </trkpt>
      <trkpt lat="46.20989" lon="4.60942">
        <ele>560.929</ele>
        <time>2014-05-25T11:13:15Z</time>
      </trkpt>
      <trkpt lat="46.20995" lon="4.60955">
        <ele>562.795</ele>
        <time>2014-05-25T11:13:30Z</time>
      </trkpt>
      <trkpt lat="46.21008" lon="4.60961">
        <ele>565.948</ele>
        <time>2014-05-25T11:13:43Z</time>
      </trkpt>
      <trkpt lat="46.21014" lon="4.60961">
        <ele>566.253</ele>
        <time>2014-05-25T11:13:48Z</time>
      </trkpt>
      <trkpt lat="46.21023" lon="4.60963">
        <ele>567.72</ele>
        <time>2014-05-25T11:14:01Z</time>
      </trkpt>
      <trkpt lat="46.21026" lon="4.60966">
        <ele>567.472</ele>
        <time>2014-05-25T11:14:05Z</time>
      </trkpt>
      <trkpt lat="46.2103" lon="4.60968">
        <ele>568.147</ele>
        <time>2014-05-25T11:14:08Z</time>
      </trkpt>
      <trkpt lat="46.21039" lon="4.60977">
        <ele>568.892</ele>
        <time>2014-05-25T11:14:21Z</time>
      </trkpt>
      <trkpt lat="46.21046" lon="4.60981">
        <ele>570.054</ele>
        <time>2014-05-25T11:15:04Z</time>
      </trkpt>
      <trkpt lat="46.2105" lon="4.60978">
        <ele>570.506</ele>
        <time>2014-05-25T11:15:20Z</time>
      </trkpt>
      <trkpt lat="46.21062" lon="4.60955">
        <ele>572.892</ele>
        <time>2014-05-25T11:15:39Z</time>
      </trkpt>
      <trkpt lat="46.21067" lon="4.60939">
        <ele>573.938</ele>
        <time>2014-05-25T11:15:52Z</time>
      </trkpt>
      <trkpt lat="46.21073" lon="4.6092">
        <ele>575.089</ele>
        <time>2014-05-25T11:16:06Z</time>
      </trkpt>
      <trkpt lat="46.21072" lon="4.60916">
        <ele>574.684</ele>
        <time>2014-05-25T11:16:08Z</time>
      </trkpt>
      <trkpt lat="46.21075" lon="4.60911">
        <ele>574.729</ele>
        <time>2014-05-25T11:16:12Z</time>
      </trkpt>
      <trkpt lat="46.21072" lon="4.60893">
        <ele>574.409</ele>
        <time>2014-05-25T11:16:27Z</time>
      </trkpt>
      <trkpt lat="46.21074" lon="4.60878">
        <ele>575.02</ele>
        <time>2014-05-25T11:16:44Z</time>
      </trkpt>
      <trkpt lat="46.21074" lon="4.60868">
        <ele>575.626</ele>
        <time>2014-05-25T11:17:06Z</time>
      </trkpt>
      <trkpt lat="46.21074" lon="4.60864">
        <ele>575.691</ele>
        <time>2014-05-25T11:17:14Z</time>
      </trkpt>
      <trkpt lat="46.21073" lon="4.60848">
        <ele>576.823</ele>
        <time>2014-05-25T11:17:29Z</time>
      </trkpt>
      <trkpt lat="46.21078" lon="4.60841">
        <ele>577.911</ele>
        <time>2014-05-25T11:17:42Z</time>
      </trkpt>
      <trkpt lat="46.2108" lon="4.60838">
        <ele>578.443</ele>
        <time>2014-05-25T11:17:53Z</time>
      </trkpt>
      <trkpt lat="46.21089" lon="4.60835">
        <ele>579.952</ele>
        <time>2014-05-25T11:18:08Z</time>
      </trkpt>
      <trkpt lat="46.21092" lon="4.60835">
        <ele>580.955</ele>
        <time>2014-05-25T11:18:16Z</time>
      </trkpt>
      <trkpt lat="46.21092" lon="4.60839">
        <ele>580.323</ele>
        <time>2014-05-25T11:18:30Z</time>
      </trkpt>
      <trkpt lat="46.21104" lon="4.60831">
        <ele>581.774</ele>
        <time>2014-05-25T11:19:02Z</time>
      </trkpt>
      <trkpt lat="46.21112" lon="4.60833">
        <ele>583.236</ele>
        <time>2014-05-25T11:19:17Z</time>
      </trkpt>
      <trkpt lat="46.21114" lon="4.60834">
        <ele>583.235</ele>
        <time>2014-05-25T11:19:44Z</time>
      </trkpt>
      <trkpt lat="46.21113" lon="4.60833">
        <ele>582.753</ele>
        <time>2014-05-25T11:19:59Z</time>
      </trkpt>
      <trkpt lat="46.21116" lon="4.60838">
        <ele>583.398</ele>
        <time>2014-05-25T11:20:12Z</time>
      </trkpt>
      <trkpt lat="46.21123" lon="4.60816">
        <ele>584.42</ele>
        <time>2014-05-25T11:20:47Z</time>
      </trkpt>
      <trkpt lat="46.21126" lon="4.60803">
        <ele>584.7</ele>
        <time>2014-05-25T11:20:58Z</time>
      </trkpt>
      <trkpt lat="46.21129" lon="4.60795">
        <ele>585.121</ele>
        <time>2014-05-25T11:21:19Z</time>
      </trkpt>
      <trkpt lat="46.2113" lon="4.6079">
        <ele>584.189</ele>
        <time>2014-05-25T11:21:22Z</time>
      </trkpt>
      <trkpt lat="46.21141" lon="4.60756">
        <ele>582.532</ele>
        <time>2014-05-25T11:21:45Z</time>
      </trkpt>
      <trkpt lat="46.21143" lon="4.60734">
        <ele>580.646</ele>
        <time>2014-05-25T11:22:06Z</time>
      </trkpt>
      <trkpt lat="46.21142" lon="4.60728">
        <ele>581.047</ele>
        <time>2014-05-25T11:22:36Z</time>
      </trkpt>
      <trkpt lat="46.21146" lon="4.60723">
        <ele>581.041</ele>
        <time>2014-05-25T11:22:41Z</time>
      </trkpt>
      <trkpt lat="46.21159" lon="4.60682">
        <ele>577.613</ele>
        <time>2014-05-25T11:23:08Z</time>
      </trkpt>
      <trkpt lat="46.2117" lon="4.60647">
        <ele>574.328</ele>
        <time>2014-05-25T11:23:31Z</time>
      </trkpt>
      <trkpt lat="46.21175" lon="4.60633">
        <ele>572.993</ele>
        <time>2014-05-25T11:23:47Z</time>
      </trkpt>
      <trkpt lat="46.21186" lon="4.60601">
        <ele>569.858</ele>
        <time>2014-05-25T11:24:10Z</time>
      </trkpt>
      <trkpt lat="46.21192" lon="4.60586">
        <ele>568.597</ele>
        <time>2014-05-25T11:24:27Z</time>
      </trkpt>
      <trkpt lat="46.21197" lon="4.60563">
        <ele>566.383</ele>
        <time>2014-05-25T11:24:42Z</time>
      </trkpt>
      <trkpt lat="46.2121" lon="4.60534">
        <ele>562.913</ele>
        <time>2014-05-25T11:25:04Z</time>
      </trkpt>
      <trkpt lat="46.21221" lon="4.605">
        <ele>559.672</ele>
        <time>2014-05-25T11:25:27Z</time>
      </trkpt>
      <trkpt lat="46.2124" lon="4.60463">
        <ele>556.528</ele>
        <time>2014-05-25T11:25:54Z</time>
      </trkpt>
      <trkpt lat="46.21264" lon="4.60444">
        <ele>553.272</ele>
        <time>2014-05-25T11:26:18Z</time>
      </trkpt>
      <trkpt lat="46.21267" lon="4.6044">
        <ele>553.153</ele>
        <time>2014-05-25T11:26:34Z</time>
      </trkpt>
      <trkpt lat="46.21293" lon="4.60428">
        <ele>551.729</ele>
        <time>2014-05-25T11:26:56Z</time>
      </trkpt>
      <trkpt lat="46.21311" lon="4.60422">
        <ele>551.197</ele>
        <time>2014-05-25T11:27:12Z</time>
      </trkpt>
      <trkpt lat="46.21313" lon="4.6042">
        <ele>550.131</ele>
        <time>2014-05-25T11:27:22Z</time>
      </trkpt>
      <trkpt lat="46.21302" lon="4.60408">
        <ele>549.027</ele>
        <time>2014-05-25T11:27:36Z</time>
      </trkpt>
      <trkpt lat="46.21283" lon="4.60399">
        <ele>547.138</ele>
        <time>2014-05-25T11:27:56Z</time>
      </trkpt>
      <trkpt lat="46.21272" lon="4.60391">
        <ele>546.904</ele>
        <time>2014-05-25T11:28:14Z</time>
      </trkpt>
      <trkpt lat="46.21257" lon="4.60377">
        <ele>545.728</ele>
        <time>2014-05-25T11:28:31Z</time>
      </trkpt>
      <trkpt lat="46.21255" lon="4.60375">
        <ele>545.515</ele>
        <time>2014-05-25T11:28:33Z</time>
      </trkpt>
      <trkpt lat="46.21231" lon="4.60366">
        <ele>544.119</ele>
        <time>2014-05-25T11:28:53Z</time>
      </trkpt>
      <trkpt lat="46.21228" lon="4.60367">
        <ele>544.101</ele>
        <time>2014-05-25T11:28:56Z</time>
      </trkpt>
      <trkpt lat="46.21204" lon="4.60382">
        <ele>541.896</ele>
        <time>2014-05-25T11:29:18Z</time>
      </trkpt>
      <trkpt lat="46.21197" lon="4.6039">
        <ele>541.588</ele>
        <time>2014-05-25T11:29:25Z</time>
      </trkpt>
      <trkpt lat="46.21176" lon="4.60413">
        <ele>539.794</ele>
        <time>2014-05-25T11:29:48Z</time>
      </trkpt>
      <trkpt lat="46.21173" lon="4.6042">
        <ele>539.375</ele>
        <time>2014-05-25T11:29:53Z</time>
      </trkpt>
      <trkpt lat="46.21166" lon="4.60435">
        <ele>539.038</ele>
        <time>2014-05-25T11:30:03Z</time>
      </trkpt>
      <trkpt lat="46.21165" lon="4.60438">
        <ele>539.107</ele>
        <time>2014-05-25T11:30:05Z</time>
      </trkpt>
      <trkpt lat="46.21164" lon="4.6044">
        <ele>539.102</ele>
        <time>2014-05-25T11:30:07Z</time>
      </trkpt>
      <trkpt lat="46.21154" lon="4.60447">
        <ele>538.411</ele>
        <time>2014-05-25T11:30:17Z</time>
      </trkpt>
      <trkpt lat="46.21152" lon="4.60442">
        <ele>537.739</ele>
        <time>2014-05-25T11:30:21Z</time>
      </trkpt>
      <trkpt lat="46.21152" lon="4.60432">
        <ele>536.878</ele>
        <time>2014-05-25T11:30:26Z</time>
      </trkpt>
      <trkpt lat="46.21165" lon="4.60405">
        <ele>535.443</ele>
        <time>2014-05-25T11:30:46Z</time>
      </trkpt>
      <trkpt lat="46.21174" lon="4.60381">
        <ele>533.69</ele>
        <time>2014-05-25T11:31:05Z</time>
      </trkpt>
      <trkpt lat="46.21183" lon="4.60351">
        <ele>532.363</ele>
        <time>2014-05-25T11:31:27Z</time>
      </trkpt>
      <trkpt lat="46.2119" lon="4.60344">
        <ele>531.64</ele>
        <time>2014-05-25T11:31:43Z</time>
      </trkpt>
      <trkpt lat="46.21196" lon="4.60332">
        <ele>530.646</ele>
        <time>2014-05-25T11:31:56Z</time>
      </trkpt>
      <trkpt lat="46.21203" lon="4.60311">
        <ele>529.585</ele>
        <time>2014-05-25T11:32:29Z</time>
      </trkpt>
      <trkpt lat="46.21214" lon="4.60283">
        <ele>527.587</ele>
        <time>2014-05-25T11:32:47Z</time>
      </trkpt>
      <trkpt lat="46.2123" lon="4.60255">
        <ele>526.427</ele>
        <time>2014-05-25T11:33:08Z</time>
      </trkpt>
      <trkpt lat="46.21255" lon="4.6024">
        <ele>524.058</ele>
        <time>2014-05-25T11:33:31Z</time>
      </trkpt>
      <trkpt lat="46.2127" lon="4.6024">
        <ele>522.661</ele>
        <time>2014-05-25T11:33:43Z</time>
      </trkpt>
      <trkpt lat="46.21271" lon="4.60234">
        <ele>521.777</ele>
        <time>2014-05-25T11:33:47Z</time>
      </trkpt>
      <trkpt lat="46.2127" lon="4.60229">
        <ele>521.143</ele>
        <time>2014-05-25T11:33:51Z</time>
      </trkpt>
      <trkpt lat="46.21245" lon="4.60219">
        <ele>519.349</ele>
        <time>2014-05-25T11:34:13Z</time>
      </trkpt>
      <trkpt lat="46.21226" lon="4.60212">
        <ele>518.024</ele>
        <time>2014-05-25T11:34:32Z</time>
      </trkpt>
      <trkpt lat="46.2122" lon="4.60211">
        <ele>517.925</ele>
        <time>2014-05-25T11:34:40Z</time>
      </trkpt>
      <trkpt lat="46.21203" lon="4.60196">
        <ele>517.677</ele>
        <time>2014-05-25T11:34:59Z</time>
      </trkpt>
      <trkpt lat="46.21194" lon="4.60167">
        <ele>517.974</ele>
        <time>2014-05-25T11:35:20Z</time>
      </trkpt>
      <trkpt lat="46.21198" lon="4.60137">
        <ele>517.382</ele>
        <time>2014-05-25T11:35:40Z</time>
      </trkpt>
      <trkpt lat="46.21203" lon="4.60111">
        <ele>516.439</ele>
        <time>2014-05-25T11:35:58Z</time>
      </trkpt>
      <trkpt lat="46.21202" lon="4.60088">
        <ele>516.216</ele>
        <time>2014-05-25T11:36:12Z</time>
      </trkpt>
      <trkpt lat="46.21196" lon="4.60055">
        <ele>513.007</ele>
        <time>2014-05-25T11:36:38Z</time>
      </trkpt>
      <trkpt lat="46.21172" lon="4.60045">
        <ele>514.691</ele>
        <time>2014-05-25T11:37:02Z</time>
      </trkpt>
      <trkpt lat="46.21167" lon="4.60042">
        <ele>514.888</ele>
        <time>2014-05-25T11:37:07Z</time>
      </trkpt>
      <trkpt lat="46.21149" lon="4.6003">
        <ele>516.093</ele>
        <time>2014-05-25T11:37:26Z</time>
      </trkpt>
      <trkpt lat="46.21135" lon="4.60017">
        <ele>516.75</ele>
        <time>2014-05-25T11:37:42Z</time>
      </trkpt>
      <trkpt lat="46.21132" lon="4.60014">
        <ele>516.945</ele>
        <time>2014-05-25T11:37:45Z</time>
      </trkpt>
      <trkpt lat="46.21124" lon="4.60004">
        <ele>517.58</ele>
        <time>2014-05-25T11:38:06Z</time>
      </trkpt>
      <trkpt lat="46.21108" lon="4.59995">
        <ele>519.369</ele>
        <time>2014-05-25T11:38:23Z</time>
      </trkpt>
      <trkpt lat="46.2109" lon="4.59985">
        <ele>520.615</ele>
        <time>2014-05-25T11:38:41Z</time>
      </trkpt>
      <trkpt lat="46.21086" lon="4.59982">
        <ele>521.031</ele>
        <time>2014-05-25T11:38:45Z</time>
      </trkpt>
      <trkpt lat="46.21067" lon="4.5997">
        <ele>522.163</ele>
        <time>2014-05-25T11:39:03Z</time>
      </trkpt>
      <trkpt lat="46.21054" lon="4.59967">
        <ele>522.928</ele>
        <time>2014-05-25T11:39:15Z</time>
      </trkpt>
      <trkpt lat="46.21047" lon="4.59962">
        <ele>523.122</ele>
        <time>2014-05-25T11:39:22Z</time>
      </trkpt>
      <trkpt lat="46.21045" lon="4.59961">
        <ele>523.526</ele>
        <time>2014-05-25T11:39:24Z</time>
      </trkpt>
      <trkpt lat="46.21041" lon="4.59961">
        <ele>523.721</ele>
        <time>2014-05-25T11:39:27Z</time>
      </trkpt>
      <trkpt lat="46.21025" lon="4.59957">
        <ele>524.511</ele>
        <time>2014-05-25T11:39:42Z</time>
      </trkpt>
      <trkpt lat="46.2101" lon="4.59953">
        <ele>525.601</ele>
        <time>2014-05-25T11:39:56Z</time>
      </trkpt>
      <trkpt lat="46.21004" lon="4.59953">
        <ele>525.75</ele>
        <time>2014-05-25T11:40:01Z</time>
      </trkpt>
      <trkpt lat="46.20987" lon="4.5996">
        <ele>527.401</ele>
        <time>2014-05-25T11:40:20Z</time>
      </trkpt>
      <trkpt lat="46.20972" lon="4.5997">
        <ele>527.032</ele>
        <time>2014-05-25T11:40:33Z</time>
      </trkpt>
      <trkpt lat="46.20969" lon="4.59971">
        <ele>526.725</ele>
        <time>2014-05-25T11:40:36Z</time>
      </trkpt>
      <trkpt lat="46.20964" lon="4.59978">
        <ele>526.405</ele>
        <time>2014-05-25T11:40:42Z</time>
      </trkpt>
      <trkpt lat="46.20958" lon="4.59979">
        <ele>526.283</ele>
        <time>2014-05-25T11:40:47Z</time>
      </trkpt>
      <trkpt lat="46.2095" lon="4.59986">
        <ele>525.972</ele>
        <time>2014-05-25T11:40:54Z</time>
      </trkpt>
      <trkpt lat="46.20939" lon="4.59992">
        <ele>525.357</ele>
        <time>2014-05-25T11:41:05Z</time>
      </trkpt>
      <trkpt lat="46.20928" lon="4.59998">
        <ele>525.857</ele>
        <time>2014-05-25T11:41:18Z</time>
      </trkpt>
      <trkpt lat="46.20917" lon="4.60002">
        <ele>525.403</ele>
        <time>2014-05-25T11:41:30Z</time>
      </trkpt>
      <trkpt lat="46.209" lon="4.60004">
        <ele>525.437</ele>
        <time>2014-05-25T11:41:46Z</time>
      </trkpt>
      <trkpt lat="46.20896" lon="4.60004">
        <ele>525.072</ele>
        <time>2014-05-25T11:41:50Z</time>
      </trkpt>
      <trkpt lat="46.2088" lon="4.60012">
        <ele>525.975</ele>
        <time>2014-05-25T11:42:05Z</time>
      </trkpt>
      <trkpt lat="46.20875" lon="4.60018">
        <ele>525.557</ele>
        <time>2014-05-25T11:42:12Z</time>
      </trkpt>
      <trkpt lat="46.20872" lon="4.60021">
        <ele>526.307</ele>
        <time>2014-05-25T11:42:16Z</time>
      </trkpt>
      <trkpt lat="46.20866" lon="4.60029">
        <ele>526.699</ele>
        <time>2014-05-25T11:42:45Z</time>
      </trkpt>
      <trkpt lat="46.20861" lon="4.60028">
        <ele>527.019</ele>
        <time>2014-05-25T11:43:04Z</time>
      </trkpt>
      <trkpt lat="46.20847" lon="4.60031">
        <ele>528.566</ele>
        <time>2014-05-25T11:43:16Z</time>
      </trkpt>
      <trkpt lat="46.20831" lon="4.60031">
        <ele>530.445</ele>
        <time>2014-05-25T11:43:30Z</time>
      </trkpt>
      <trkpt lat="46.20812" lon="4.60033">
        <ele>532.459</ele>
        <time>2014-05-25T11:43:46Z</time>
      </trkpt>
      <trkpt lat="46.20804" lon="4.60035">
        <ele>533.606</ele>
        <time>2014-05-25T11:43:58Z</time>
      </trkpt>
      <trkpt lat="46.20787" lon="4.60033">
        <ele>535.403</ele>
        <time>2014-05-25T11:44:15Z</time>
      </trkpt>
      <trkpt lat="46.20772" lon="4.60029">
        <ele>537.092</ele>
        <time>2014-05-25T11:44:31Z</time>
      </trkpt>
      <trkpt lat="46.20752" lon="4.60024">
        <ele>539.585</ele>
        <time>2014-05-25T11:44:53Z</time>
      </trkpt>
      <trkpt lat="46.20741" lon="4.60022">
        <ele>541.12</ele>
        <time>2014-05-25T11:45:08Z</time>
      </trkpt>
      <trkpt lat="46.20724" lon="4.60019">
        <ele>542.087</ele>
        <time>2014-05-25T11:45:25Z</time>
      </trkpt>
      <trkpt lat="46.20709" lon="4.60014">
        <ele>542.485</ele>
        <time>2014-05-25T11:45:42Z</time>
      </trkpt>
      <trkpt lat="46.20698" lon="4.60015">
        <ele>543.327</ele>
        <time>2014-05-25T11:45:54Z</time>
      </trkpt>
      <trkpt lat="46.20686" lon="4.60013">
        <ele>543.977</ele>
        <time>2014-05-25T11:46:06Z</time>
      </trkpt>
      <trkpt lat="46.20674" lon="4.60006">
        <ele>546.421</ele>
        <time>2014-05-25T11:46:22Z</time>
      </trkpt>
      <trkpt lat="46.20656" lon="4.6">
        <ele>547.513</ele>
        <time>2014-05-25T11:46:39Z</time>
      </trkpt>
      <trkpt lat="46.20648" lon="4.59997">
        <ele>547.711</ele>
        <time>2014-05-25T11:46:47Z</time>
      </trkpt>
      <trkpt lat="46.2063" lon="4.59987">
        <ele>547.832</ele>
        <time>2014-05-25T11:47:06Z</time>
      </trkpt>
      <trkpt lat="46.20626" lon="4.59987">
        <ele>548.188</ele>
        <time>2014-05-25T11:47:09Z</time>
      </trkpt>
      <trkpt lat="46.2061" lon="4.59981">
        <ele>547.773</ele>
        <time>2014-05-25T11:47:24Z</time>
      </trkpt>
      <trkpt lat="46.20602" lon="4.59971">
        <ele>548.652</ele>
        <time>2014-05-25T11:47:37Z</time>
      </trkpt>
      <trkpt lat="46.20588" lon="4.59965">
        <ele>549.038</ele>
        <time>2014-05-25T11:47:52Z</time>
      </trkpt>
      <trkpt lat="46.20583" lon="4.59962">
        <ele>548.992</ele>
        <time>2014-05-25T11:47:57Z</time>
      </trkpt>
      <trkpt lat="46.20575" lon="4.59956">
        <ele>548.747</ele>
        <time>2014-05-25T11:48:08Z</time>
      </trkpt>
      <trkpt lat="46.20558" lon="4.59942">
        <ele>548.907</ele>
        <time>2014-05-25T11:48:24Z</time>
      </trkpt>
      <trkpt lat="46.20549" lon="4.59937">
        <ele>548.028</ele>
        <time>2014-05-25T11:48:35Z</time>
      </trkpt>
      <trkpt lat="46.20537" lon="4.59928">
        <ele>547.35</ele>
        <time>2014-05-25T11:48:47Z</time>
      </trkpt>
      <trkpt lat="46.20522" lon="4.59919">
        <ele>545.393</ele>
        <time>2014-05-25T11:49:01Z</time>
      </trkpt>
      <trkpt lat="46.20507" lon="4.59907">
        <ele>543.633</ele>
        <time>2014-05-25T11:49:17Z</time>
      </trkpt>
      <trkpt lat="46.20498" lon="4.59898">
        <ele>542.949</ele>
        <time>2014-05-25T11:49:26Z</time>
      </trkpt>
      <trkpt lat="46.20486" lon="4.59888">
        <ele>541.658</ele>
        <time>2014-05-25T11:49:40Z</time>
      </trkpt>
      <trkpt lat="46.20475" lon="4.59874">
        <ele>540.913</ele>
        <time>2014-05-25T11:49:55Z</time>
      </trkpt>
      <trkpt lat="46.20461" lon="4.59865">
        <ele>541.615</ele>
        <time>2014-05-25T11:50:10Z</time>
      </trkpt>
      <trkpt lat="46.20453" lon="4.59859">
        <ele>542.33</ele>
        <time>2014-05-25T11:50:21Z</time>
      </trkpt>
      <trkpt lat="46.20447" lon="4.59858">
        <ele>542.423</ele>
        <time>2014-05-25T11:50:39Z</time>
      </trkpt>
      <trkpt lat="46.20444" lon="4.59861">
        <ele>543.181</ele>
        <time>2014-05-25T11:50:59Z</time>
      </trkpt>
      <trkpt lat="46.20442" lon="4.5986">
        <ele>541.913</ele>
        <time>2014-05-25T11:51:14Z</time>
      </trkpt>
      <trkpt lat="46.20442" lon="4.59855">
        <ele>543.207</ele>
        <time>2014-05-25T12:27:37Z</time>
      </trkpt>
      <trkpt lat="46.20444" lon="4.5985">
        <ele>542.167</ele>
        <time>2014-05-25T12:27:42Z</time>
      </trkpt>
      <trkpt lat="46.20434" lon="4.59845">
        <ele>542.289</ele>
        <time>2014-05-25T12:27:54Z</time>
      </trkpt>
      <trkpt lat="46.2042" lon="4.59842">
        <ele>542.3</ele>
        <time>2014-05-25T12:28:15Z</time>
      </trkpt>
      <trkpt lat="46.20406" lon="4.59846">
        <ele>541.789</ele>
        <time>2014-05-25T12:28:30Z</time>
      </trkpt>
      <trkpt lat="46.20399" lon="4.59845">
        <ele>541.864</ele>
        <time>2014-05-25T12:29:10Z</time>
      </trkpt>
      <trkpt lat="46.20403" lon="4.59843">
        <ele>542.053</ele>
        <time>2014-05-25T12:29:14Z</time>
      </trkpt>
      <trkpt lat="46.20407" lon="4.59826">
        <ele>541.779</ele>
        <time>2014-05-25T12:29:24Z</time>
      </trkpt>
      <trkpt lat="46.20413" lon="4.59805">
        <ele>540.581</ele>
        <time>2014-05-25T12:29:38Z</time>
      </trkpt>
      <trkpt lat="46.20414" lon="4.59802">
        <ele>540.862</ele>
        <time>2014-05-25T12:29:40Z</time>
      </trkpt>
      <trkpt lat="46.20415" lon="4.59797">
        <ele>540.031</ele>
        <time>2014-05-25T12:29:44Z</time>
      </trkpt>
      <trkpt lat="46.20419" lon="4.59779">
        <ele>540.566</ele>
        <time>2014-05-25T12:29:57Z</time>
      </trkpt>
      <trkpt lat="46.20419" lon="4.59776">
        <ele>540.712</ele>
        <time>2014-05-25T12:29:59Z</time>
      </trkpt>
      <trkpt lat="46.20417" lon="4.59755">
        <ele>541.209</ele>
        <time>2014-05-25T12:30:13Z</time>
      </trkpt>
      <trkpt lat="46.20419" lon="4.59729">
        <ele>542.513</ele>
        <time>2014-05-25T12:30:30Z</time>
      </trkpt>
      <trkpt lat="46.2042" lon="4.59721">
        <ele>542.52</ele>
        <time>2014-05-25T12:30:37Z</time>
      </trkpt>
      <trkpt lat="46.20422" lon="4.59717">
        <ele>542.489</ele>
        <time>2014-05-25T12:30:40Z</time>
      </trkpt>
      <trkpt lat="46.20424" lon="4.59708">
        <ele>543.585</ele>
        <time>2014-05-25T12:30:56Z</time>
      </trkpt>
      <trkpt lat="46.2043" lon="4.59696">
        <ele>544.915</ele>
        <time>2014-05-25T12:31:09Z</time>
      </trkpt>
      <trkpt lat="46.20439" lon="4.59688">
        <ele>546.463</ele>
        <time>2014-05-25T12:31:23Z</time>
      </trkpt>
      <trkpt lat="46.20451" lon="4.59683">
        <ele>547.491</ele>
        <time>2014-05-25T12:31:48Z</time>
      </trkpt>
      <trkpt lat="46.20466" lon="4.59677">
        <ele>550.036</ele>
        <time>2014-05-25T12:32:05Z</time>
      </trkpt>
      <trkpt lat="46.20479" lon="4.59673">
        <ele>552.499</ele>
        <time>2014-05-25T12:32:24Z</time>
      </trkpt>
      <trkpt lat="46.20488" lon="4.5967">
        <ele>553.978</ele>
        <time>2014-05-25T12:32:38Z</time>
      </trkpt>
      <trkpt lat="46.2049" lon="4.59668">
        <ele>555.314</ele>
        <time>2014-05-25T12:32:41Z</time>
      </trkpt>
      <trkpt lat="46.20495" lon="4.59666">
        <ele>556.826</ele>
        <time>2014-05-25T12:32:54Z</time>
      </trkpt>
      <trkpt lat="46.20506" lon="4.59664">
        <ele>558.49</ele>
        <time>2014-05-25T12:33:27Z</time>
      </trkpt>
      <trkpt lat="46.20515" lon="4.59661">
        <ele>559.21</ele>
        <time>2014-05-25T12:33:40Z</time>
      </trkpt>
      <trkpt lat="46.20517" lon="4.59659">
        <ele>558.734</ele>
        <time>2014-05-25T12:34:20Z</time>
      </trkpt>
      <trkpt lat="46.20534" lon="4.5965">
        <ele>560.371</ele>
        <time>2014-05-25T12:34:38Z</time>
      </trkpt>
      <trkpt lat="46.20545" lon="4.59644">
        <ele>562.017</ele>
        <time>2014-05-25T12:34:53Z</time>
      </trkpt>
      <trkpt lat="46.20557" lon="4.59638">
        <ele>563.163</ele>
        <time>2014-05-25T12:35:07Z</time>
      </trkpt>
      <trkpt lat="46.20576" lon="4.59629">
        <ele>565.422</ele>
        <time>2014-05-25T12:36:01Z</time>
      </trkpt>
      <trkpt lat="46.20583" lon="4.59624">
        <ele>567.013</ele>
        <time>2014-05-25T12:36:08Z</time>
      </trkpt>
      <trkpt lat="46.20596" lon="4.59616">
        <ele>567.824</ele>
        <time>2014-05-25T12:36:23Z</time>
      </trkpt>
      <trkpt lat="46.20612" lon="4.59607">
        <ele>570.006</ele>
        <time>2014-05-25T12:36:41Z</time>
      </trkpt>
      <trkpt lat="46.20616" lon="4.59602">
        <ele>570.816</ele>
        <time>2014-05-25T12:36:46Z</time>
      </trkpt>
      <trkpt lat="46.20627" lon="4.59587">
        <ele>572.82</ele>
        <time>2014-05-25T12:37:02Z</time>
      </trkpt>
      <trkpt lat="46.20637" lon="4.59564">
        <ele>574.624</ele>
        <time>2014-05-25T12:37:20Z</time>
      </trkpt>
      <trkpt lat="46.2064" lon="4.59559">
        <ele>575.893</ele>
        <time>2014-05-25T12:38:25Z</time>
      </trkpt>
      <trkpt lat="46.20631" lon="4.59544">
        <ele>577.788</ele>
        <time>2014-05-25T12:38:40Z</time>
      </trkpt>
      <trkpt lat="46.20627" lon="4.5954">
        <ele>577.921</ele>
        <time>2014-05-25T12:38:45Z</time>
      </trkpt>
      <trkpt lat="46.20625" lon="4.59536">
        <ele>578.56</ele>
        <time>2014-05-25T12:38:48Z</time>
      </trkpt>
      <trkpt lat="46.20625" lon="4.59534">
        <ele>578.681</ele>
        <time>2014-05-25T12:38:50Z</time>
      </trkpt>
      <trkpt lat="46.20621" lon="4.59529">
        <ele>579.745</ele>
        <time>2014-05-25T12:38:55Z</time>
      </trkpt>
      <trkpt lat="46.2061" lon="4.59524">
        <ele>580.122</ele>
        <time>2014-05-25T12:39:04Z</time>
      </trkpt>
      <trkpt lat="46.20594" lon="4.59523">
        <ele>581.428</ele>
        <time>2014-05-25T12:39:19Z</time>
      </trkpt>
      <trkpt lat="46.20579" lon="4.59519">
        <ele>582.249</ele>
        <time>2014-05-25T12:39:34Z</time>
      </trkpt>
      <trkpt lat="46.20576" lon="4.59517">
        <ele>582.669</ele>
        <time>2014-05-25T12:39:50Z</time>
      </trkpt>
      <trkpt lat="46.20567" lon="4.59514">
        <ele>582.929</ele>
        <time>2014-05-25T12:40:07Z</time>
      </trkpt>
      <trkpt lat="46.20562" lon="4.59509">
        <ele>583.023</ele>
        <time>2014-05-25T12:40:24Z</time>
      </trkpt>
      <trkpt lat="46.2056" lon="4.59508">
        <ele>583.58</ele>
        <time>2014-05-25T12:41:57Z</time>
      </trkpt>
      <trkpt lat="46.20546" lon="4.59502">
        <ele>584.04</ele>
        <time>2014-05-25T12:42:14Z</time>
      </trkpt>
      <trkpt lat="46.20537" lon="4.59499">
        <ele>583.753</ele>
        <time>2014-05-25T12:42:27Z</time>
      </trkpt>
      <trkpt lat="46.20529" lon="4.59501">
        <ele>583.84</ele>
        <time>2014-05-25T12:42:35Z</time>
      </trkpt>
      <trkpt lat="46.20508" lon="4.59501">
        <ele>584.444</ele>
        <time>2014-05-25T12:42:54Z</time>
      </trkpt>
      <trkpt lat="46.20498" lon="4.59495">
        <ele>584.968</ele>
        <time>2014-05-25T12:43:13Z</time>
      </trkpt>
      <trkpt lat="46.20499" lon="4.59493">
        <ele>584.617</ele>
        <time>2014-05-25T12:43:35Z</time>
      </trkpt>
      <trkpt lat="46.20501" lon="4.59482">
        <ele>585.487</ele>
        <time>2014-05-25T12:44:03Z</time>
      </trkpt>
      <trkpt lat="46.20494" lon="4.59477">
        <ele>584.812</ele>
        <time>2014-05-25T12:46:05Z</time>
      </trkpt>
      <trkpt lat="46.20486" lon="4.59461">
        <ele>586.2</ele>
        <time>2014-05-25T12:46:20Z</time>
      </trkpt>
      <trkpt lat="46.20482" lon="4.59443">
        <ele>587.762</ele>
        <time>2014-05-25T12:46:36Z</time>
      </trkpt>
      <trkpt lat="46.20478" lon="4.59428">
        <ele>589.297</ele>
        <time>2014-05-25T12:46:48Z</time>
      </trkpt>
      <trkpt lat="46.20477" lon="4.59426">
        <ele>589.822</ele>
        <time>2014-05-25T12:46:50Z</time>
      </trkpt>
      <trkpt lat="46.20471" lon="4.5942">
        <ele>590.382</ele>
        <time>2014-05-25T12:46:57Z</time>
      </trkpt>
      <trkpt lat="46.20466" lon="4.59414">
        <ele>591.468</ele>
        <time>2014-05-25T12:47:03Z</time>
      </trkpt>
      <trkpt lat="46.20464" lon="4.59413">
        <ele>591.657</ele>
        <time>2014-05-25T12:47:05Z</time>
      </trkpt>
      <trkpt lat="46.20458" lon="4.59403">
        <ele>593.871</ele>
        <time>2014-05-25T12:47:17Z</time>
      </trkpt>
      <trkpt lat="46.20455" lon="4.59398">
        <ele>594.842</ele>
        <time>2014-05-25T12:47:24Z</time>
      </trkpt>
      <trkpt lat="46.20445" lon="4.59394">
        <ele>597.283</ele>
        <time>2014-05-25T12:47:43Z</time>
      </trkpt>
      <trkpt lat="46.20445" lon="4.59387">
        <ele>597.634</ele>
        <time>2014-05-25T12:47:48Z</time>
      </trkpt>
      <trkpt lat="46.20442" lon="4.59369">
        <ele>600.545</ele>
        <time>2014-05-25T12:48:05Z</time>
      </trkpt>
      <trkpt lat="46.20435" lon="4.59356">
        <ele>603.634</ele>
        <time>2014-05-25T12:48:23Z</time>
      </trkpt>
      <trkpt lat="46.2043" lon="4.59337">
        <ele>606.38</ele>
        <time>2014-05-25T12:48:39Z</time>
      </trkpt>
      <trkpt lat="46.20422" lon="4.59325">
        <ele>608.6</ele>
        <time>2014-05-25T12:48:51Z</time>
      </trkpt>
      <trkpt lat="46.2042" lon="4.5932">
        <ele>608.933</ele>
        <time>2014-05-25T12:48:56Z</time>
      </trkpt>
      <trkpt lat="46.20415" lon="4.59307">
        <ele>611.555</ele>
        <time>2014-05-25T12:49:09Z</time>
      </trkpt>
      <trkpt lat="46.20407" lon="4.59293">
        <ele>614.576</ele>
        <time>2014-05-25T12:49:28Z</time>
      </trkpt>
      <trkpt lat="46.20402" lon="4.59275">
        <ele>617.672</ele>
        <time>2014-05-25T12:49:46Z</time>
      </trkpt>
      <trkpt lat="46.20405" lon="4.59267">
        <ele>618.791</ele>
        <time>2014-05-25T12:50:08Z</time>
      </trkpt>
      <trkpt lat="46.20397" lon="4.59259">
        <ele>621.272</ele>
        <time>2014-05-25T12:50:24Z</time>
      </trkpt>
      <trkpt lat="46.20391" lon="4.59253">
        <ele>622.906</ele>
        <time>2014-05-25T12:50:52Z</time>
      </trkpt>
      <trkpt lat="46.20384" lon="4.59244">
        <ele>625.998</ele>
        <time>2014-05-25T12:51:10Z</time>
      </trkpt>
      <trkpt lat="46.20375" lon="4.59228">
        <ele>628.104</ele>
        <time>2014-05-25T12:51:32Z</time>
      </trkpt>
      <trkpt lat="46.20371" lon="4.59216">
        <ele>628.094</ele>
        <time>2014-05-25T12:51:55Z</time>
      </trkpt>
      <trkpt lat="46.20363" lon="4.59196">
        <ele>630.573</ele>
        <time>2014-05-25T12:52:17Z</time>
      </trkpt>
      <trkpt lat="46.2035" lon="4.59179">
        <ele>632.657</ele>
        <time>2014-05-25T12:52:37Z</time>
      </trkpt>
      <trkpt lat="46.20337" lon="4.59157">
        <ele>634.617</ele>
        <time>2014-05-25T12:53:00Z</time>
      </trkpt>
      <trkpt lat="46.2033" lon="4.59144">
        <ele>636.501</ele>
        <time>2014-05-25T12:53:23Z</time>
      </trkpt>
      <trkpt lat="46.20317" lon="4.59132">
        <ele>639.724</ele>
        <time>2014-05-25T12:53:59Z</time>
      </trkpt>
      <trkpt lat="46.20309" lon="4.59121">
        <ele>641.062</ele>
        <time>2014-05-25T12:54:13Z</time>
      </trkpt>
      <trkpt lat="46.20296" lon="4.59115">
        <ele>643.821</ele>
        <time>2014-05-25T12:54:33Z</time>
      </trkpt>
      <trkpt lat="46.20291" lon="4.59107">
        <ele>645.004</ele>
        <time>2014-05-25T12:54:46Z</time>
      </trkpt>
      <trkpt lat="46.20284" lon="4.59099">
        <ele>645.495</ele>
        <time>2014-05-25T12:55:03Z</time>
      </trkpt>
      <trkpt lat="46.20278" lon="4.59094">
        <ele>645.97</ele>
        <time>2014-05-25T12:55:18Z</time>
      </trkpt>
      <trkpt lat="46.20268" lon="4.59083">
        <ele>645.902</ele>
        <time>2014-05-25T12:55:35Z</time>
      </trkpt>
      <trkpt lat="46.20262" lon="4.59073">
        <ele>646.071</ele>
        <time>2014-05-25T12:55:58Z</time>
      </trkpt>
      <trkpt lat="46.20258" lon="4.59063">
        <ele>645.766</ele>
        <time>2014-05-25T12:56:05Z</time>
      </trkpt>
      <trkpt lat="46.20254" lon="4.59051">
        <ele>646.051</ele>
        <time>2014-05-25T12:56:22Z</time>
      </trkpt>
      <trkpt lat="46.20251" lon="4.59051">
        <ele>645.61</ele>
        <time>2014-05-25T12:56:35Z</time>
      </trkpt>
      <trkpt lat="46.20244" lon="4.5904">
        <ele>645.951</ele>
        <time>2014-05-25T12:56:51Z</time>
      </trkpt>
      <trkpt lat="46.20238" lon="4.59021">
        <ele>645.586</ele>
        <time>2014-05-25T12:57:06Z</time>
      </trkpt>
      <trkpt lat="46.20236" lon="4.59018">
        <ele>645.604</ele>
        <time>2014-05-25T12:57:08Z</time>
      </trkpt>
      <trkpt lat="46.20229" lon="4.59003">
        <ele>645.451</ele>
        <time>2014-05-25T12:57:19Z</time>
      </trkpt>
      <trkpt lat="46.20226" lon="4.58978">
        <ele>645.104</ele>
        <time>2014-05-25T12:57:37Z</time>
      </trkpt>
      <trkpt lat="46.20221" lon="4.58956">
        <ele>646.134</ele>
        <time>2014-05-25T12:57:53Z</time>
      </trkpt>
      <trkpt lat="46.2022" lon="4.58936">
        <ele>646.68</ele>
        <time>2014-05-25T12:58:10Z</time>
      </trkpt>
      <trkpt lat="46.20219" lon="4.58925">
        <ele>647.421</ele>
        <time>2014-05-25T12:58:31Z</time>
      </trkpt>
      <trkpt lat="46.20224" lon="4.58907">
        <ele>648.931</ele>
        <time>2014-05-25T12:58:44Z</time>
      </trkpt>
      <trkpt lat="46.20226" lon="4.58881">
        <ele>649.414</ele>
        <time>2014-05-25T12:59:04Z</time>
      </trkpt>
      <trkpt lat="46.20224" lon="4.58854">
        <ele>649.266</ele>
        <time>2014-05-25T12:59:26Z</time>
      </trkpt>
      <trkpt lat="46.20223" lon="4.58829">
        <ele>649.574</ele>
        <time>2014-05-25T12:59:45Z</time>
      </trkpt>
      <trkpt lat="46.20225" lon="4.58815">
        <ele>649.663</ele>
        <time>2014-05-25T13:00:01Z</time>
      </trkpt>
      <trkpt lat="46.20229" lon="4.58805">
        <ele>651.023</ele>
        <time>2014-05-25T13:00:21Z</time>
      </trkpt>
      <trkpt lat="46.20234" lon="4.5878">
        <ele>652.057</ele>
        <time>2014-05-25T13:00:44Z</time>
      </trkpt>
      <trkpt lat="46.20238" lon="4.58768">
        <ele>653.284</ele>
        <time>2014-05-25T13:01:10Z</time>
      </trkpt>
      <trkpt lat="46.20238" lon="4.58752">
        <ele>654.554</ele>
        <time>2014-05-25T13:04:21Z</time>
      </trkpt>
      <trkpt lat="46.20233" lon="4.58747">
        <ele>653.809</ele>
        <time>2014-05-25T13:05:16Z</time>
      </trkpt>
      <trkpt lat="46.20231" lon="4.58741">
        <ele>653.176</ele>
        <time>2014-05-25T13:05:20Z</time>
      </trkpt>
      <trkpt lat="46.20221" lon="4.58727">
        <ele>651.529</ele>
        <time>2014-05-25T13:05:35Z</time>
      </trkpt>
      <trkpt lat="46.20214" lon="4.58718">
        <ele>650.753</ele>
        <time>2014-05-25T13:06:02Z</time>
      </trkpt>
      <trkpt lat="46.20205" lon="4.58716">
        <ele>647.657</ele>
        <time>2014-05-25T13:06:29Z</time>
      </trkpt>
      <trkpt lat="46.20184" lon="4.58697">
        <ele>644.611</ele>
        <time>2014-05-25T13:06:47Z</time>
      </trkpt>
      <trkpt lat="46.20179" lon="4.5869">
        <ele>644.17</ele>
        <time>2014-05-25T13:06:52Z</time>
      </trkpt>
      <trkpt lat="46.2017" lon="4.58679">
        <ele>642.515</ele>
        <time>2014-05-25T13:07:03Z</time>
      </trkpt>
      <trkpt lat="46.20162" lon="4.5865">
        <ele>641.832</ele>
        <time>2014-05-25T13:07:20Z</time>
      </trkpt>
      <trkpt lat="46.20153" lon="4.58638">
        <ele>641.622</ele>
        <time>2014-05-25T13:07:30Z</time>
      </trkpt>
      <trkpt lat="46.2014" lon="4.5863">
        <ele>639.447</ele>
        <time>2014-05-25T13:07:44Z</time>
      </trkpt>
      <trkpt lat="46.20134" lon="4.58619">
        <ele>637.504</ele>
        <time>2014-05-25T13:07:55Z</time>
      </trkpt>
      <trkpt lat="46.20128" lon="4.58615">
        <ele>636.088</ele>
        <time>2014-05-25T13:08:01Z</time>
      </trkpt>
      <trkpt lat="46.20126" lon="4.58612">
        <ele>634.993</ele>
        <time>2014-05-25T13:08:04Z</time>
      </trkpt>
      <trkpt lat="46.20115" lon="4.586">
        <ele>631.929</ele>
        <time>2014-05-25T13:08:18Z</time>
      </trkpt>
      <trkpt lat="46.20109" lon="4.58594">
        <ele>630.88</ele>
        <time>2014-05-25T13:08:25Z</time>
      </trkpt>
      <trkpt lat="46.20103" lon="4.58578">
        <ele>628.224</ele>
        <time>2014-05-25T13:08:39Z</time>
      </trkpt>
      <trkpt lat="46.20092" lon="4.58566">
        <ele>624.874</ele>
        <time>2014-05-25T13:08:53Z</time>
      </trkpt>
      <trkpt lat="46.20082" lon="4.58556">
        <ele>623.413</ele>
        <time>2014-05-25T13:09:03Z</time>
      </trkpt>
      <trkpt lat="46.20079" lon="4.5855">
        <ele>623.009</ele>
        <time>2014-05-25T13:09:09Z</time>
      </trkpt>
      <trkpt lat="46.20066" lon="4.58549">
        <ele>622.081</ele>
        <time>2014-05-25T13:09:25Z</time>
      </trkpt>
      <trkpt lat="46.20047" lon="4.58554">
        <ele>623.366</ele>
        <time>2014-05-25T13:09:45Z</time>
      </trkpt>
      <trkpt lat="46.20039" lon="4.58553">
        <ele>624.796</ele>
        <time>2014-05-25T13:10:07Z</time>
      </trkpt>
      <trkpt lat="46.20026" lon="4.58565">
        <ele>626.745</ele>
        <time>2014-05-25T13:10:24Z</time>
      </trkpt>
      <trkpt lat="46.2001" lon="4.58579">
        <ele>628.727</ele>
        <time>2014-05-25T13:10:40Z</time>
      </trkpt>
      <trkpt lat="46.19999" lon="4.58594">
        <ele>631.899</ele>
        <time>2014-05-25T13:11:00Z</time>
      </trkpt>
      <trkpt lat="46.19988" lon="4.58605">
        <ele>634.242</ele>
        <time>2014-05-25T13:11:18Z</time>
      </trkpt>
      <trkpt lat="46.19978" lon="4.58617">
        <ele>635.555</ele>
        <time>2014-05-25T13:11:31Z</time>
      </trkpt>
      <trkpt lat="46.19967" lon="4.58622">
        <ele>637.521</ele>
        <time>2014-05-25T13:11:45Z</time>
      </trkpt>
      <trkpt lat="46.19956" lon="4.58634">
        <ele>639.092</ele>
        <time>2014-05-25T13:11:59Z</time>
      </trkpt>
      <trkpt lat="46.19944" lon="4.58649">
        <ele>640.477</ele>
        <time>2014-05-25T13:12:15Z</time>
      </trkpt>
      <trkpt lat="46.19935" lon="4.5866">
        <ele>641.452</ele>
        <time>2014-05-25T13:12:29Z</time>
      </trkpt>
      <trkpt lat="46.19932" lon="4.58663">
        <ele>641.562</ele>
        <time>2014-05-25T13:12:33Z</time>
      </trkpt>
      <trkpt lat="46.1992" lon="4.58669">
        <ele>641.336</ele>
        <time>2014-05-25T13:12:46Z</time>
      </trkpt>
      <trkpt lat="46.19907" lon="4.58677">
        <ele>639.714</ele>
        <time>2014-05-25T13:13:00Z</time>
      </trkpt>
      <trkpt lat="46.19901" lon="4.58683">
        <ele>638.84</ele>
        <time>2014-05-25T13:13:06Z</time>
      </trkpt>
      <trkpt lat="46.19893" lon="4.58694">
        <ele>638.137</ele>
        <time>2014-05-25T13:13:17Z</time>
      </trkpt>
      <trkpt lat="46.19891" lon="4.58684">
        <ele>639.013</ele>
        <time>2014-05-25T13:13:27Z</time>
      </trkpt>
      <trkpt lat="46.19888" lon="4.58664">
        <ele>642.253</ele>
        <time>2014-05-25T13:13:44Z</time>
      </trkpt>
      <trkpt lat="46.19887" lon="4.58644">
        <ele>645.26</ele>
        <time>2014-05-25T13:14:02Z</time>
      </trkpt>
      <trkpt lat="46.19887" lon="4.58632">
        <ele>648.321</ele>
        <time>2014-05-25T13:14:16Z</time>
      </trkpt>
      <trkpt lat="46.19891" lon="4.58617">
        <ele>650.377</ele>
        <time>2014-05-25T13:14:30Z</time>
      </trkpt>
      <trkpt lat="46.19894" lon="4.58605">
        <ele>652.958</ele>
        <time>2014-05-25T13:14:41Z</time>
      </trkpt>
      <trkpt lat="46.19894" lon="4.58602">
        <ele>653.668</ele>
        <time>2014-05-25T13:14:45Z</time>
      </trkpt>
      <trkpt lat="46.19887" lon="4.58593">
        <ele>656.547</ele>
        <time>2014-05-25T13:15:01Z</time>
      </trkpt>
      <trkpt lat="46.19883" lon="4.58593">
        <ele>657.451</ele>
        <time>2014-05-25T13:15:32Z</time>
      </trkpt>
      <trkpt lat="46.19872" lon="4.58596">
        <ele>659.173</ele>
        <time>2014-05-25T13:15:53Z</time>
      </trkpt>
      <trkpt lat="46.19867" lon="4.58596">
        <ele>659.843</ele>
        <time>2014-05-25T13:16:13Z</time>
      </trkpt>
      <trkpt lat="46.19854" lon="4.58598">
        <ele>662.629</ele>
        <time>2014-05-25T13:16:37Z</time>
      </trkpt>
      <trkpt lat="46.19844" lon="4.58596">
        <ele>663.958</ele>
        <time>2014-05-25T13:16:57Z</time>
      </trkpt>
      <trkpt lat="46.19832" lon="4.58587">
        <ele>665.579</ele>
        <time>2014-05-25T13:17:18Z</time>
      </trkpt>
      <trkpt lat="46.19821" lon="4.58581">
        <ele>667.643</ele>
        <time>2014-05-25T13:17:40Z</time>
      </trkpt>
      <trkpt lat="46.19818" lon="4.58579">
        <ele>668.094</ele>
        <time>2014-05-25T13:17:49Z</time>
      </trkpt>
      <trkpt lat="46.19804" lon="4.58561">
        <ele>670.805</ele>
        <time>2014-05-25T13:18:16Z</time>
      </trkpt>
      <trkpt lat="46.1979" lon="4.58538">
        <ele>674.163</ele>
        <time>2014-05-25T13:18:41Z</time>
      </trkpt>
      <trkpt lat="46.19784" lon="4.58531">
        <ele>674.127</ele>
        <time>2014-05-25T13:19:01Z</time>
      </trkpt>
      <trkpt lat="46.19783" lon="4.58526">
        <ele>674.051</ele>
        <time>2014-05-25T13:19:05Z</time>
      </trkpt>
      <trkpt lat="46.19781" lon="4.58519">
        <ele>674.807</ele>
        <time>2014-05-25T13:19:10Z</time>
      </trkpt>
      <trkpt lat="46.19776" lon="4.585">
        <ele>675.198</ele>
        <time>2014-05-25T13:19:25Z</time>
      </trkpt>
      <trkpt lat="46.19769" lon="4.58484">
        <ele>675.166</ele>
        <time>2014-05-25T13:19:37Z</time>
      </trkpt>
      <trkpt lat="46.19766" lon="4.58482">
        <ele>675.519</ele>
        <time>2014-05-25T13:19:40Z</time>
      </trkpt>
      <trkpt lat="46.19759" lon="4.58466">
        <ele>676.006</ele>
        <time>2014-05-25T13:19:56Z</time>
      </trkpt>
      <trkpt lat="46.19755" lon="4.58466">
        <ele>676.208</ele>
        <time>2014-05-25T13:20:13Z</time>
      </trkpt>
      <trkpt lat="46.19749" lon="4.5846">
        <ele>676.012</ele>
        <time>2014-05-25T13:20:31Z</time>
      </trkpt>
      <trkpt lat="46.19743" lon="4.58437">
        <ele>676.549</ele>
        <time>2014-05-25T13:20:46Z</time>
      </trkpt>
      <trkpt lat="46.19737" lon="4.58422">
        <ele>677.14</ele>
        <time>2014-05-25T13:20:58Z</time>
      </trkpt>
      <trkpt lat="46.19736" lon="4.58411">
        <ele>677.898</ele>
        <time>2014-05-25T13:21:05Z</time>
      </trkpt>
      <trkpt lat="46.19732" lon="4.584">
        <ele>679.074</ele>
        <time>2014-05-25T13:21:16Z</time>
      </trkpt>
      <trkpt lat="46.19726" lon="4.58382">
        <ele>680.653</ele>
        <time>2014-05-25T13:21:30Z</time>
      </trkpt>
      <trkpt lat="46.1972" lon="4.58363">
        <ele>682.447</ele>
        <time>2014-05-25T13:21:46Z</time>
      </trkpt>
      <trkpt lat="46.19714" lon="4.58357">
        <ele>682.586</ele>
        <time>2014-05-25T13:22:00Z</time>
      </trkpt>
      <trkpt lat="46.1971" lon="4.58355">
        <ele>682.663</ele>
        <time>2014-05-25T13:22:17Z</time>
      </trkpt>
      <trkpt lat="46.19703" lon="4.58348">
        <ele>684.918</ele>
        <time>2014-05-25T13:22:30Z</time>
      </trkpt>
      <trkpt lat="46.19695" lon="4.58345">
        <ele>687.818</ele>
        <time>2014-05-25T13:22:43Z</time>
      </trkpt>
      <trkpt lat="46.19686" lon="4.58339">
        <ele>689.085</ele>
        <time>2014-05-25T13:22:55Z</time>
      </trkpt>
      <trkpt lat="46.19678" lon="4.5832">
        <ele>691.359</ele>
        <time>2014-05-25T13:23:11Z</time>
      </trkpt>
      <trkpt lat="46.19669" lon="4.58308">
        <ele>693.017</ele>
        <time>2014-05-25T13:23:23Z</time>
      </trkpt>
      <trkpt lat="46.19661" lon="4.58298">
        <ele>694.918</ele>
        <time>2014-05-25T13:23:37Z</time>
      </trkpt>
      <trkpt lat="46.19651" lon="4.58289">
        <ele>698.287</ele>
        <time>2014-05-25T13:23:55Z</time>
      </trkpt>
      <trkpt lat="46.1964" lon="4.58276">
        <ele>701.175</ele>
        <time>2014-05-25T13:24:14Z</time>
      </trkpt>
      <trkpt lat="46.19632" lon="4.58265">
        <ele>703.326</ele>
        <time>2014-05-25T13:24:31Z</time>
      </trkpt>
      <trkpt lat="46.19625" lon="4.58257">
        <ele>705.909</ele>
        <time>2014-05-25T13:24:44Z</time>
      </trkpt>
      <trkpt lat="46.19615" lon="4.58246">
        <ele>708.437</ele>
        <time>2014-05-25T13:25:05Z</time>
      </trkpt>
      <trkpt lat="46.19612" lon="4.58241">
        <ele>709.516</ele>
        <time>2014-05-25T13:25:33Z</time>
      </trkpt>
      <trkpt lat="46.19611" lon="4.58235">
        <ele>710.653</ele>
        <time>2014-05-25T13:25:58Z</time>
      </trkpt>
      <trkpt lat="46.19598" lon="4.58227">
        <ele>713.365</ele>
        <time>2014-05-25T13:26:34Z</time>
      </trkpt>
      <trkpt lat="46.19595" lon="4.58228">
        <ele>713.671</ele>
        <time>2014-05-25T13:27:12Z</time>
      </trkpt>
      <trkpt lat="46.19591" lon="4.58204">
        <ele>717.112</ele>
        <time>2014-05-25T13:28:19Z</time>
      </trkpt>
      <trkpt lat="46.19591" lon="4.58188">
        <ele>719.783</ele>
        <time>2014-05-25T13:28:36Z</time>
      </trkpt>
      <trkpt lat="46.19587" lon="4.5817">
        <ele>722.956</ele>
        <time>2014-05-25T13:28:52Z</time>
      </trkpt>
      <trkpt lat="46.19581" lon="4.58159">
        <ele>724.828</ele>
        <time>2014-05-25T13:29:06Z</time>
      </trkpt>
      <trkpt lat="46.19576" lon="4.58154">
        <ele>726.261</ele>
        <time>2014-05-25T13:29:13Z</time>
      </trkpt>
      <trkpt lat="46.19566" lon="4.58136">
        <ele>729.256</ele>
        <time>2014-05-25T13:29:33Z</time>
      </trkpt>
      <trkpt lat="46.19557" lon="4.58117">
        <ele>732.373</ele>
        <time>2014-05-25T13:29:52Z</time>
      </trkpt>
      <trkpt lat="46.19554" lon="4.5811">
        <ele>733.167</ele>
        <time>2014-05-25T13:30:00Z</time>
      </trkpt>
      <trkpt lat="46.19548" lon="4.58096">
        <ele>735.554</ele>
        <time>2014-05-25T13:30:14Z</time>
      </trkpt>
      <trkpt lat="46.19543" lon="4.58083">
        <ele>737.626</ele>
        <time>2014-05-25T13:30:30Z</time>
      </trkpt>
      <trkpt lat="46.19534" lon="4.58071">
        <ele>739.975</ele>
        <time>2014-05-25T13:30:47Z</time>
      </trkpt>
      <trkpt lat="46.19531" lon="4.58064">
        <ele>741.127</ele>
        <time>2014-05-25T13:30:58Z</time>
      </trkpt>
      <trkpt lat="46.19525" lon="4.58056">
        <ele>741.492</ele>
        <time>2014-05-25T13:31:10Z</time>
      </trkpt>
      <trkpt lat="46.19523" lon="4.58047">
        <ele>742.963</ele>
        <time>2014-05-25T13:31:22Z</time>
      </trkpt>
      <trkpt lat="46.19517" lon="4.58037">
        <ele>743.854</ele>
        <time>2014-05-25T13:31:58Z</time>
      </trkpt>
      <trkpt lat="46.19512" lon="4.58028">
        <ele>744.585</ele>
        <time>2014-05-25T13:32:13Z</time>
      </trkpt>
      <trkpt lat="46.19507" lon="4.58013">
        <ele>746.408</ele>
        <time>2014-05-25T13:32:32Z</time>
      </trkpt>
      <trkpt lat="46.19501" lon="4.58004">
        <ele>747.002</ele>
        <time>2014-05-25T13:32:50Z</time>
      </trkpt>
      <trkpt lat="46.19496" lon="4.57986">
        <ele>747.827</ele>
        <time>2014-05-25T13:33:04Z</time>
      </trkpt>
      <trkpt lat="46.19481" lon="4.57969">
        <ele>749.365</ele>
        <time>2014-05-25T13:33:25Z</time>
      </trkpt>
      <trkpt lat="46.19466" lon="4.57951">
        <ele>751.247</ele>
        <time>2014-05-25T13:33:47Z</time>
      </trkpt>
      <trkpt lat="46.19453" lon="4.57931">
        <ele>752.73</ele>
        <time>2014-05-25T13:34:06Z</time>
      </trkpt>
      <trkpt lat="46.19438" lon="4.57916">
        <ele>755.262</ele>
        <time>2014-05-25T13:34:38Z</time>
      </trkpt>
      <trkpt lat="46.19429" lon="4.57902">
        <ele>756.547</ele>
        <time>2014-05-25T13:34:58Z</time>
      </trkpt>
      <trkpt lat="46.19424" lon="4.57891">
        <ele>757.389</ele>
        <time>2014-05-25T13:35:07Z</time>
      </trkpt>
      <trkpt lat="46.19416" lon="4.5788">
        <ele>757.901</ele>
        <time>2014-05-25T13:35:23Z</time>
      </trkpt>
      <trkpt lat="46.19401" lon="4.57857">
        <ele>760.078</ele>
        <time>2014-05-25T13:35:47Z</time>
      </trkpt>
      <trkpt lat="46.19397" lon="4.57855">
        <ele>760.392</ele>
        <time>2014-05-25T13:35:51Z</time>
      </trkpt>
      <trkpt lat="46.19382" lon="4.57846">
        <ele>761.386</ele>
        <time>2014-05-25T13:36:08Z</time>
      </trkpt>
      <trkpt lat="46.19361" lon="4.57848">
        <ele>763.317</ele>
        <time>2014-05-25T13:36:30Z</time>
      </trkpt>
      <trkpt lat="46.19347" lon="4.57859">
        <ele>764.345</ele>
        <time>2014-05-25T13:36:47Z</time>
      </trkpt>
      <trkpt lat="46.19333" lon="4.57869">
        <ele>766.258</ele>
        <time>2014-05-25T13:37:11Z</time>
      </trkpt>
      <trkpt lat="46.1932" lon="4.57876">
        <ele>767.328</ele>
        <time>2014-05-25T13:37:29Z</time>
      </trkpt>
      <trkpt lat="46.19311" lon="4.5788">
        <ele>768.224</ele>
        <time>2014-05-25T13:37:49Z</time>
      </trkpt>
      <trkpt lat="46.19305" lon="4.57883">
        <ele>769.29</ele>
        <time>2014-05-25T13:38:06Z</time>
      </trkpt>
      <trkpt lat="46.19303" lon="4.57884">
        <ele>768.957</ele>
        <time>2014-05-25T13:38:14Z</time>
      </trkpt>
      <trkpt lat="46.19307" lon="4.5788">
        <ele>768.902</ele>
        <time>2014-05-25T13:38:36Z</time>
      </trkpt>
      <trkpt lat="46.19303" lon="4.57884">
        <ele>769.085</ele>
        <time>2014-05-25T13:39:07Z</time>
      </trkpt>
      <trkpt lat="46.19298" lon="4.57884">
        <ele>769.4</ele>
        <time>2014-05-25T13:39:13Z</time>
      </trkpt>
      <trkpt lat="46.19289" lon="4.57889">
        <ele>770.968</ele>
        <time>2014-05-25T13:39:31Z</time>
      </trkpt>
      <trkpt lat="46.19278" lon="4.57885">
        <ele>770.991</ele>
        <time>2014-05-25T13:39:50Z</time>
      </trkpt>
      <trkpt lat="46.19272" lon="4.57885">
        <ele>771.992</ele>
        <time>2014-05-25T13:40:12Z</time>
      </trkpt>
      <trkpt lat="46.19266" lon="4.57881">
        <ele>772.429</ele>
        <time>2014-05-25T13:40:31Z</time>
      </trkpt>
      <trkpt lat="46.1926" lon="4.57868">
        <ele>773.341</ele>
        <time>2014-05-25T13:40:42Z</time>
      </trkpt>
      <trkpt lat="46.1926" lon="4.57857">
        <ele>774.609</ele>
        <time>2014-05-25T13:40:50Z</time>
      </trkpt>
      <trkpt lat="46.19263" lon="4.57842">
        <ele>775.008</ele>
        <time>2014-05-25T13:41:01Z</time>
      </trkpt>
      <trkpt lat="46.19266" lon="4.57823">
        <ele>776.539</ele>
        <time>2014-05-25T13:41:15Z</time>
      </trkpt>
      <trkpt lat="46.19268" lon="4.57812">
        <ele>777.32</ele>
        <time>2014-05-25T13:41:23Z</time>
      </trkpt>
      <trkpt lat="46.19269" lon="4.57802">
        <ele>777.545</ele>
        <time>2014-05-25T13:41:31Z</time>
      </trkpt>
      <trkpt lat="46.19269" lon="4.57798">
        <ele>777.675</ele>
        <time>2014-05-25T13:41:34Z</time>
      </trkpt>
      <trkpt lat="46.19268" lon="4.57776">
        <ele>778.901</ele>
        <time>2014-05-25T13:41:51Z</time>
      </trkpt>
      <trkpt lat="46.19264" lon="4.57773">
        <ele>779.158</ele>
        <time>2014-05-25T13:42:06Z</time>
      </trkpt>
      <trkpt lat="46.19248" lon="4.57787">
        <ele>779.172</ele>
        <time>2014-05-25T13:42:27Z</time>
      </trkpt>
      <trkpt lat="46.19228" lon="4.57807">
        <ele>778.378</ele>
        <time>2014-05-25T13:42:50Z</time>
      </trkpt>
      <trkpt lat="46.19204" lon="4.57826">
        <ele>778.077</ele>
        <time>2014-05-25T13:43:14Z</time>
      </trkpt>
      <trkpt lat="46.19195" lon="4.57836">
        <ele>778.419</ele>
        <time>2014-05-25T13:43:31Z</time>
      </trkpt>
      <trkpt lat="46.19172" lon="4.57851">
        <ele>778.945</ele>
        <time>2014-05-25T13:43:54Z</time>
      </trkpt>
      <trkpt lat="46.19155" lon="4.57865">
        <ele>779.23</ele>
        <time>2014-05-25T13:44:11Z</time>
      </trkpt>
      <trkpt lat="46.19139" lon="4.57885">
        <ele>780.283</ele>
        <time>2014-05-25T13:44:30Z</time>
      </trkpt>
      <trkpt lat="46.19125" lon="4.57899">
        <ele>781.224</ele>
        <time>2014-05-25T13:44:47Z</time>
      </trkpt>
      <trkpt lat="46.19117" lon="4.5791">
        <ele>782.256</ele>
        <time>2014-05-25T13:44:57Z</time>
      </trkpt>
      <trkpt lat="46.19114" lon="4.57914">
        <ele>782.494</ele>
        <time>2014-05-25T13:45:01Z</time>
      </trkpt>
      <trkpt lat="46.19098" lon="4.57935">
        <ele>784.772</ele>
        <time>2014-05-25T13:45:23Z</time>
      </trkpt>
      <trkpt lat="46.19078" lon="4.57962">
        <ele>786.399</ele>
        <time>2014-05-25T13:45:49Z</time>
      </trkpt>
      <trkpt lat="46.19067" lon="4.57975">
        <ele>787.042</ele>
        <time>2014-05-25T13:46:02Z</time>
      </trkpt>
      <trkpt lat="46.19064" lon="4.57977">
        <ele>787.242</ele>
        <time>2014-05-25T13:46:05Z</time>
      </trkpt>
      <trkpt lat="46.19056" lon="4.5799">
        <ele>787.947</ele>
        <time>2014-05-25T13:46:16Z</time>
      </trkpt>
      <trkpt lat="46.19049" lon="4.58">
        <ele>788.489</ele>
        <time>2014-05-25T13:46:25Z</time>
      </trkpt>
      <trkpt lat="46.19039" lon="4.58012">
        <ele>788.992</ele>
        <time>2014-05-25T13:46:38Z</time>
      </trkpt>
      <trkpt lat="46.19028" lon="4.5803">
        <ele>790.301</ele>
        <time>2014-05-25T13:46:55Z</time>
      </trkpt>
      <trkpt lat="46.19022" lon="4.58037">
        <ele>790.662</ele>
        <time>2014-05-25T13:47:02Z</time>
      </trkpt>
      <trkpt lat="46.19019" lon="4.58039">
        <ele>790.706</ele>
        <time>2014-05-25T13:47:04Z</time>
      </trkpt>
      <trkpt lat="46.19013" lon="4.58046">
        <ele>791.577</ele>
        <time>2014-05-25T13:47:11Z</time>
      </trkpt>
      <trkpt lat="46.19005" lon="4.58054">
        <ele>792.094</ele>
        <time>2014-05-25T13:47:21Z</time>
      </trkpt>
      <trkpt lat="46.19004" lon="4.58058">
        <ele>792.162</ele>
        <time>2014-05-25T13:47:24Z</time>
      </trkpt>
      <trkpt lat="46.18999" lon="4.5806">
        <ele>792.482</ele>
        <time>2014-05-25T13:47:28Z</time>
      </trkpt>
      <trkpt lat="46.18994" lon="4.58064">
        <ele>793.207</ele>
        <time>2014-05-25T13:47:33Z</time>
      </trkpt>
      <trkpt lat="46.18987" lon="4.58073">
        <ele>793.867</ele>
        <time>2014-05-25T13:47:43Z</time>
      </trkpt>
      <trkpt lat="46.18981" lon="4.58079">
        <ele>794.333</ele>
        <time>2014-05-25T13:47:51Z</time>
      </trkpt>
      <trkpt lat="46.18974" lon="4.58083">
        <ele>795.07</ele>
        <time>2014-05-25T13:47:58Z</time>
      </trkpt>
      <trkpt lat="46.18969" lon="4.5809">
        <ele>795.135</ele>
        <time>2014-05-25T13:48:39Z</time>
      </trkpt>
      <trkpt lat="46.18953" lon="4.58107">
        <ele>796.677</ele>
        <time>2014-05-25T13:49:12Z</time>
      </trkpt>
      <trkpt lat="46.18938" lon="4.5812">
        <ele>797.982</ele>
        <time>2014-05-25T13:49:28Z</time>
      </trkpt>
      <trkpt lat="46.18933" lon="4.58132">
        <ele>798.327</ele>
        <time>2014-05-25T13:49:44Z</time>
      </trkpt>
      <trkpt lat="46.18923" lon="4.58138">
        <ele>799.309</ele>
        <time>2014-05-25T13:50:07Z</time>
      </trkpt>
      <trkpt lat="46.18914" lon="4.58145">
        <ele>799.871</ele>
        <time>2014-05-25T13:50:18Z</time>
      </trkpt>
      <trkpt lat="46.18912" lon="4.58147">
        <ele>799.961</ele>
        <time>2014-05-25T13:50:20Z</time>
      </trkpt>
      <trkpt lat="46.18906" lon="4.58152">
        <ele>800.622</ele>
        <time>2014-05-25T13:50:27Z</time>
      </trkpt>
      <trkpt lat="46.18894" lon="4.58162">
        <ele>801.503</ele>
        <time>2014-05-25T13:50:40Z</time>
      </trkpt>
      <trkpt lat="46.18881" lon="4.5817">
        <ele>802.552</ele>
        <time>2014-05-25T13:50:53Z</time>
      </trkpt>
      <trkpt lat="46.18872" lon="4.58188">
        <ele>804.053</ele>
        <time>2014-05-25T13:51:13Z</time>
      </trkpt>
      <trkpt lat="46.18861" lon="4.58201">
        <ele>804.907</ele>
        <time>2014-05-25T13:51:29Z</time>
      </trkpt>
      <trkpt lat="46.18854" lon="4.58228">
        <ele>805.581</ele>
        <time>2014-05-25T13:51:52Z</time>
      </trkpt>
      <trkpt lat="46.18851" lon="4.58246">
        <ele>805.908</ele>
        <time>2014-05-25T13:52:05Z</time>
      </trkpt>
      <trkpt lat="46.1885" lon="4.58257">
        <ele>806.324</ele>
        <time>2014-05-25T13:52:31Z</time>
      </trkpt>
      <trkpt lat="46.18851" lon="4.58261">
        <ele>807.062</ele>
        <time>2014-05-25T13:52:48Z</time>
      </trkpt>
      <trkpt lat="46.18847" lon="4.58277">
        <ele>807.345</ele>
        <time>2014-05-25T13:53:05Z</time>
      </trkpt>
      <trkpt lat="46.18845" lon="4.58282">
        <ele>807.72</ele>
        <time>2014-05-25T13:53:11Z</time>
      </trkpt>
      <trkpt lat="46.18842" lon="4.5829">
        <ele>808.072</ele>
        <time>2014-05-25T13:53:18Z</time>
      </trkpt>
      <trkpt lat="46.18839" lon="4.58307">
        <ele>808.717</ele>
        <time>2014-05-25T13:53:38Z</time>
      </trkpt>
      <trkpt lat="46.18837" lon="4.58315">
        <ele>808.828</ele>
        <time>2014-05-25T13:54:11Z</time>
      </trkpt>
      <trkpt lat="46.18828" lon="4.58331">
        <ele>809.533</ele>
        <time>2014-05-25T13:54:32Z</time>
      </trkpt>
      <trkpt lat="46.1883" lon="4.58341">
        <ele>810.335</ele>
        <time>2014-05-25T13:54:57Z</time>
      </trkpt>
      <trkpt lat="46.18827" lon="4.58346">
        <ele>810.596</ele>
        <time>2014-05-25T13:55:01Z</time>
      </trkpt>
      <trkpt lat="46.18824" lon="4.58354">
        <ele>810.614</ele>
        <time>2014-05-25T13:55:08Z</time>
      </trkpt>
      <trkpt lat="46.18823" lon="4.58358">
        <ele>810.74</ele>
        <time>2014-05-25T13:55:11Z</time>
      </trkpt>
      <trkpt lat="46.18823" lon="4.58362">
        <ele>811.108</ele>
        <time>2014-05-25T13:55:13Z</time>
      </trkpt>
      <trkpt lat="46.18824" lon="4.58367">
        <ele>811.531</ele>
        <time>2014-05-25T13:55:16Z</time>
      </trkpt>
      <trkpt lat="46.18818" lon="4.58389">
        <ele>812.403</ele>
        <time>2014-05-25T13:55:32Z</time>
      </trkpt>
      <trkpt lat="46.18818" lon="4.58401">
        <ele>812.837</ele>
        <time>2014-05-25T13:55:40Z</time>
      </trkpt>
      <trkpt lat="46.18817" lon="4.58404">
        <ele>812.901</ele>
        <time>2014-05-25T13:55:42Z</time>
      </trkpt>
      <trkpt lat="46.18815" lon="4.58409">
        <ele>813.675</ele>
        <time>2014-05-25T13:55:47Z</time>
      </trkpt>
      <trkpt lat="46.18814" lon="4.58412">
        <ele>813.479</ele>
        <time>2014-05-25T13:55:49Z</time>
      </trkpt>
      <trkpt lat="46.18813" lon="4.58422">
        <ele>814.532</ele>
        <time>2014-05-25T13:55:58Z</time>
      </trkpt>
      <trkpt lat="46.18814" lon="4.58426">
        <ele>814.547</ele>
        <time>2014-05-25T13:56:00Z</time>
      </trkpt>
      <trkpt lat="46.18813" lon="4.5843">
        <ele>815.033</ele>
        <time>2014-05-25T13:56:03Z</time>
      </trkpt>
      <trkpt lat="46.18811" lon="4.58443">
        <ele>815.049</ele>
        <time>2014-05-25T13:56:12Z</time>
      </trkpt>
      <trkpt lat="46.18812" lon="4.58454">
        <ele>816.051</ele>
        <time>2014-05-25T13:56:19Z</time>
      </trkpt>
      <trkpt lat="46.18812" lon="4.58459">
        <ele>816.21</ele>
        <time>2014-05-25T13:56:23Z</time>
      </trkpt>
      <trkpt lat="46.18812" lon="4.58463">
        <ele>816.787</ele>
        <time>2014-05-25T13:56:37Z</time>
      </trkpt>
      <trkpt lat="46.18811" lon="4.58466">
        <ele>816.496</ele>
        <time>2014-05-25T13:56:40Z</time>
      </trkpt>
      <trkpt lat="46.18811" lon="4.58481">
        <ele>817.552</ele>
        <time>2014-05-25T13:56:49Z</time>
      </trkpt>
      <trkpt lat="46.18807" lon="4.58501">
        <ele>818.047</ele>
        <time>2014-05-25T13:57:10Z</time>
      </trkpt>
      <trkpt lat="46.18806" lon="4.58503">
        <ele>818.111</ele>
        <time>2014-05-25T13:57:53Z</time>
      </trkpt>
      <trkpt lat="46.18797" lon="4.58503">
        <ele>819.215</ele>
        <time>2014-05-25T13:58:12Z</time>
      </trkpt>
      <trkpt lat="46.18779" lon="4.58503">
        <ele>821.107</ele>
        <time>2014-05-25T13:58:31Z</time>
      </trkpt>
      <trkpt lat="46.18767" lon="4.58503">
        <ele>823.186</ele>
        <time>2014-05-25T13:58:50Z</time>
      </trkpt>
      <trkpt lat="46.18747" lon="4.58493">
        <ele>823.533</ele>
        <time>2014-05-25T13:59:08Z</time>
      </trkpt>
      <trkpt lat="46.18728" lon="4.58473">
        <ele>824.306</ele>
        <time>2014-05-25T13:59:32Z</time>
      </trkpt>
      <trkpt lat="46.18702" lon="4.58446">
        <ele>826.406</ele>
        <time>2014-05-25T14:00:02Z</time>
      </trkpt>
      <trkpt lat="46.18691" lon="4.58425">
        <ele>828.343</ele>
        <time>2014-05-25T14:00:24Z</time>
      </trkpt>
      <trkpt lat="46.1868" lon="4.58421">
        <ele>828.861</ele>
        <time>2014-05-25T14:00:32Z</time>
      </trkpt>
      <trkpt lat="46.18662" lon="4.58401">
        <ele>830.752</ele>
        <time>2014-05-25T14:00:53Z</time>
      </trkpt>
      <trkpt lat="46.18644" lon="4.58385">
        <ele>831.975</ele>
        <time>2014-05-25T14:01:14Z</time>
      </trkpt>
      <trkpt lat="46.18626" lon="4.58368">
        <ele>832.355</ele>
        <time>2014-05-25T14:01:38Z</time>
      </trkpt>
      <trkpt lat="46.18611" lon="4.58338">
        <ele>832.65</ele>
        <time>2014-05-25T14:01:59Z</time>
      </trkpt>
      <trkpt lat="46.18593" lon="4.58331">
        <ele>833.331</ele>
        <time>2014-05-25T14:02:18Z</time>
      </trkpt>
      <trkpt lat="46.1857" lon="4.58337">
        <ele>836.47</ele>
        <time>2014-05-25T14:02:43Z</time>
      </trkpt>
      <trkpt lat="46.18556" lon="4.58333">
        <ele>838.957</ele>
        <time>2014-05-25T14:02:59Z</time>
      </trkpt>
      <trkpt lat="46.1854" lon="4.58329">
        <ele>840.474</ele>
        <time>2014-05-25T14:03:13Z</time>
      </trkpt>
      <trkpt lat="46.18527" lon="4.58331">
        <ele>842.409</ele>
        <time>2014-05-25T14:03:30Z</time>
      </trkpt>
      <trkpt lat="46.18516" lon="4.58334">
        <ele>845.219</ele>
        <time>2014-05-25T14:03:47Z</time>
      </trkpt>
      <trkpt lat="46.18503" lon="4.58333">
        <ele>848.059</ele>
        <time>2014-05-25T14:04:02Z</time>
      </trkpt>
      <trkpt lat="46.18487" lon="4.58326">
        <ele>850.261</ele>
        <time>2014-05-25T14:04:22Z</time>
      </trkpt>
      <trkpt lat="46.18473" lon="4.58323">
        <ele>853.325</ele>
        <time>2014-05-25T14:04:41Z</time>
      </trkpt>
      <trkpt lat="46.18458" lon="4.58331">
        <ele>856.45</ele>
        <time>2014-05-25T14:05:04Z</time>
      </trkpt>
      <trkpt lat="46.18454" lon="4.58338">
        <ele>859.614</ele>
        <time>2014-05-25T14:05:22Z</time>
      </trkpt>
      <trkpt lat="46.18434" lon="4.58353">
        <ele>862.421</ele>
        <time>2014-05-25T14:05:42Z</time>
      </trkpt>
      <trkpt lat="46.18414" lon="4.58368">
        <ele>865.079</ele>
        <time>2014-05-25T14:06:03Z</time>
      </trkpt>
      <trkpt lat="46.18408" lon="4.58373">
        <ele>868.372</ele>
        <time>2014-05-25T14:06:20Z</time>
      </trkpt>
      <trkpt lat="46.18399" lon="4.58386">
        <ele>871.138</ele>
        <time>2014-05-25T14:06:40Z</time>
      </trkpt>
      <trkpt lat="46.18394" lon="4.58405">
        <ele>874.186</ele>
        <time>2014-05-25T14:06:58Z</time>
      </trkpt>
      <trkpt lat="46.1839" lon="4.58407">
        <ele>874.855</ele>
        <time>2014-05-25T14:07:16Z</time>
      </trkpt>
      <trkpt lat="46.18381" lon="4.58419">
        <ele>875.572</ele>
        <time>2014-05-25T14:08:21Z</time>
      </trkpt>
      <trkpt lat="46.18371" lon="4.58427">
        <ele>876.557</ele>
        <time>2014-05-25T14:08:34Z</time>
      </trkpt>
      <trkpt lat="46.18361" lon="4.58432">
        <ele>877.537</ele>
        <time>2014-05-25T14:08:50Z</time>
      </trkpt>
      <trkpt lat="46.18344" lon="4.58445">
        <ele>878.107</ele>
        <time>2014-05-25T14:09:08Z</time>
      </trkpt>
      <trkpt lat="46.18323" lon="4.58452">
        <ele>879.777</ele>
        <time>2014-05-25T14:09:31Z</time>
      </trkpt>
      <trkpt lat="46.18305" lon="4.5846">
        <ele>879.655</ele>
        <time>2014-05-25T14:09:52Z</time>
      </trkpt>
      <trkpt lat="46.18293" lon="4.58465">
        <ele>879.823</ele>
        <time>2014-05-25T14:10:22Z</time>
      </trkpt>
      <trkpt lat="46.18279" lon="4.58482">
        <ele>880.835</ele>
        <time>2014-05-25T14:10:39Z</time>
      </trkpt>
      <trkpt lat="46.18271" lon="4.58498">
        <ele>881.98</ele>
        <time>2014-05-25T14:10:54Z</time>
      </trkpt>
      <trkpt lat="46.18263" lon="4.58517">
        <ele>884.312</ele>
        <time>2014-05-25T14:11:11Z</time>
      </trkpt>
      <trkpt lat="46.18246" lon="4.58536">
        <ele>885.452</ele>
        <time>2014-05-25T14:11:31Z</time>
      </trkpt>
      <trkpt lat="46.18242" lon="4.58537">
        <ele>885.417</ele>
        <time>2014-05-25T14:11:36Z</time>
      </trkpt>
      <trkpt lat="46.18232" lon="4.58546">
        <ele>885.122</ele>
        <time>2014-05-25T14:11:46Z</time>
      </trkpt>
      <trkpt lat="46.18224" lon="4.58558">
        <ele>884.721</ele>
        <time>2014-05-25T14:12:07Z</time>
      </trkpt>
      <trkpt lat="46.18209" lon="4.58561">
        <ele>883.607</ele>
        <time>2014-05-25T14:12:30Z</time>
      </trkpt>
      <trkpt lat="46.18205" lon="4.58552">
        <ele>882.979</ele>
        <time>2014-05-25T14:12:48Z</time>
      </trkpt>
      <trkpt lat="46.182" lon="4.58558">
        <ele>882.742</ele>
        <time>2014-05-25T14:14:06Z</time>
      </trkpt>
      <trkpt lat="46.18193" lon="4.58563">
        <ele>877.751</ele>
        <time>2014-05-25T14:14:17Z</time>
      </trkpt>
      <trkpt lat="46.182" lon="4.58559">
        <ele>882.76</ele>
        <time>2014-05-25T14:21:17Z</time>
      </trkpt>
      <trkpt lat="46.18209" lon="4.5857">
        <ele>883.469</ele>
        <time>2014-05-25T14:21:30Z</time>
      </trkpt>
      <trkpt lat="46.18218" lon="4.58578">
        <ele>884.554</ele>
        <time>2014-05-25T14:21:45Z</time>
      </trkpt>
      <trkpt lat="46.18217" lon="4.58585">
        <ele>885.322</ele>
        <time>2014-05-25T14:21:49Z</time>
      </trkpt>
      <trkpt lat="46.18212" lon="4.58598">
        <ele>885.701</ele>
        <time>2014-05-25T14:22:04Z</time>
      </trkpt>
      <trkpt lat="46.18212" lon="4.58601">
        <ele>885.968</ele>
        <time>2014-05-25T14:22:06Z</time>
      </trkpt>
      <trkpt lat="46.18212" lon="4.58606">
        <ele>885.863</ele>
        <time>2014-05-25T14:22:09Z</time>
      </trkpt>
      <trkpt lat="46.18198" lon="4.58629">
        <ele>885.03</ele>
        <time>2014-05-25T14:22:26Z</time>
      </trkpt>
      <trkpt lat="46.18192" lon="4.58645">
        <ele>884.526</ele>
        <time>2014-05-25T14:22:38Z</time>
      </trkpt>
      <trkpt lat="46.18181" lon="4.58663">
        <ele>883.42</ele>
        <time>2014-05-25T14:22:53Z</time>
      </trkpt>
      <trkpt lat="46.18173" lon="4.5868">
        <ele>882.249</ele>
        <time>2014-05-25T14:23:10Z</time>
      </trkpt>
      <trkpt lat="46.18165" lon="4.58706">
        <ele>881.369</ele>
        <time>2014-05-25T14:23:27Z</time>
      </trkpt>
      <trkpt lat="46.18164" lon="4.58709">
        <ele>880.701</ele>
        <time>2014-05-25T14:23:29Z</time>
      </trkpt>
      <trkpt lat="46.18154" lon="4.58719">
        <ele>879.108</ele>
        <time>2014-05-25T14:23:40Z</time>
      </trkpt>
      <trkpt lat="46.18146" lon="4.5872">
        <ele>878.278</ele>
        <time>2014-05-25T14:23:47Z</time>
      </trkpt>
      <trkpt lat="46.1814" lon="4.5873">
        <ele>876.699</ele>
        <time>2014-05-25T14:23:55Z</time>
      </trkpt>
      <trkpt lat="46.18139" lon="4.58735">
        <ele>876.24</ele>
        <time>2014-05-25T14:23:58Z</time>
      </trkpt>
      <trkpt lat="46.18142" lon="4.5874">
        <ele>875.304</ele>
        <time>2014-05-25T14:24:00Z</time>
      </trkpt>
      <trkpt lat="46.18142" lon="4.58751">
        <ele>873.921</ele>
        <time>2014-05-25T14:24:06Z</time>
      </trkpt>
      <trkpt lat="46.18139" lon="4.5876">
        <ele>872.563</ele>
        <time>2014-05-25T14:24:13Z</time>
      </trkpt>
      <trkpt lat="46.18138" lon="4.58764">
        <ele>872.073</ele>
        <time>2014-05-25T14:24:16Z</time>
      </trkpt>
      <trkpt lat="46.18137" lon="4.58772">
        <ele>870.362</ele>
        <time>2014-05-25T14:24:22Z</time>
      </trkpt>
      <trkpt lat="46.18134" lon="4.58789">
        <ele>868</ele>
        <time>2014-05-25T14:24:35Z</time>
      </trkpt>
      <trkpt lat="46.18128" lon="4.58794">
        <ele>867.281</ele>
        <time>2014-05-25T14:24:40Z</time>
      </trkpt>
      <trkpt lat="46.18127" lon="4.58798">
        <ele>865.845</ele>
        <time>2014-05-25T14:24:44Z</time>
      </trkpt>
      <trkpt lat="46.18118" lon="4.58813">
        <ele>862.925</ele>
        <time>2014-05-25T14:24:56Z</time>
      </trkpt>
      <trkpt lat="46.18115" lon="4.58823">
        <ele>862.114</ele>
        <time>2014-05-25T14:25:02Z</time>
      </trkpt>
      <trkpt lat="46.18116" lon="4.58827">
        <ele>861.21</ele>
        <time>2014-05-25T14:25:05Z</time>
      </trkpt>
      <trkpt lat="46.18113" lon="4.58847">
        <ele>859.776</ele>
        <time>2014-05-25T14:25:18Z</time>
      </trkpt>
      <trkpt lat="46.1811" lon="4.58851">
        <ele>858.624</ele>
        <time>2014-05-25T14:25:22Z</time>
      </trkpt>
      <trkpt lat="46.1811" lon="4.58857">
        <ele>858.751</ele>
        <time>2014-05-25T14:25:27Z</time>
      </trkpt>
      <trkpt lat="46.18103" lon="4.58875">
        <ele>855.682</ele>
        <time>2014-05-25T14:25:43Z</time>
      </trkpt>
      <trkpt lat="46.18096" lon="4.58891">
        <ele>854.541</ele>
        <time>2014-05-25T14:25:56Z</time>
      </trkpt>
      <trkpt lat="46.18081" lon="4.58912">
        <ele>853.731</ele>
        <time>2014-05-25T14:26:17Z</time>
      </trkpt>
      <trkpt lat="46.1808" lon="4.58915">
        <ele>853.6</ele>
        <time>2014-05-25T14:26:18Z</time>
      </trkpt>
      <trkpt lat="46.1808" lon="4.58926">
        <ele>854.307</ele>
        <time>2014-05-25T14:26:25Z</time>
      </trkpt>
      <trkpt lat="46.18081" lon="4.5895">
        <ele>853.961</ele>
        <time>2014-05-25T14:26:40Z</time>
      </trkpt>
      <trkpt lat="46.18078" lon="4.58968">
        <ele>854.74</ele>
        <time>2014-05-25T14:26:54Z</time>
      </trkpt>
      <trkpt lat="46.18076" lon="4.58989">
        <ele>855.415</ele>
        <time>2014-05-25T14:27:08Z</time>
      </trkpt>
      <trkpt lat="46.18076" lon="4.59013">
        <ele>855.919</ele>
        <time>2014-05-25T14:27:23Z</time>
      </trkpt>
      <trkpt lat="46.18075" lon="4.59026">
        <ele>855.74</ele>
        <time>2014-05-25T14:27:30Z</time>
      </trkpt>
      <trkpt lat="46.18077" lon="4.59049">
        <ele>855.371</ele>
        <time>2014-05-25T14:27:44Z</time>
      </trkpt>
      <trkpt lat="46.18077" lon="4.59051">
        <ele>855.227</ele>
        <time>2014-05-25T14:27:46Z</time>
      </trkpt>
      <trkpt lat="46.18082" lon="4.59063">
        <ele>854.425</ele>
        <time>2014-05-25T14:27:53Z</time>
      </trkpt>
      <trkpt lat="46.18083" lon="4.59067">
        <ele>854.877</ele>
        <time>2014-05-25T14:27:56Z</time>
      </trkpt>
      <trkpt lat="46.18084" lon="4.59071">
        <ele>854.335</ele>
        <time>2014-05-25T14:27:58Z</time>
      </trkpt>
      <trkpt lat="46.18091" lon="4.59082">
        <ele>853.354</ele>
        <time>2014-05-25T14:28:09Z</time>
      </trkpt>
      <trkpt lat="46.18095" lon="4.59088">
        <ele>852.601</ele>
        <time>2014-05-25T14:28:13Z</time>
      </trkpt>
      <trkpt lat="46.18097" lon="4.59093">
        <ele>851.791</ele>
        <time>2014-05-25T14:28:16Z</time>
      </trkpt>
      <trkpt lat="46.18099" lon="4.5911">
        <ele>851.341</ele>
        <time>2014-05-25T14:28:26Z</time>
      </trkpt>
      <trkpt lat="46.18099" lon="4.59116">
        <ele>850.492</ele>
        <time>2014-05-25T14:28:30Z</time>
      </trkpt>
      <trkpt lat="46.18102" lon="4.59123">
        <ele>849.367</ele>
        <time>2014-05-25T14:28:35Z</time>
      </trkpt>
      <trkpt lat="46.18103" lon="4.5913">
        <ele>848.701</ele>
        <time>2014-05-25T14:28:39Z</time>
      </trkpt>
      <trkpt lat="46.18111" lon="4.59146">
        <ele>847.185</ele>
        <time>2014-05-25T14:28:56Z</time>
      </trkpt>
      <trkpt lat="46.18115" lon="4.59158">
        <ele>846.039</ele>
        <time>2014-05-25T14:29:08Z</time>
      </trkpt>
      <trkpt lat="46.18114" lon="4.59164">
        <ele>844.441</ele>
        <time>2014-05-25T14:29:25Z</time>
      </trkpt>
      <trkpt lat="46.18121" lon="4.59187">
        <ele>841.739</ele>
        <time>2014-05-25T14:29:42Z</time>
      </trkpt>
      <trkpt lat="46.18121" lon="4.59203">
        <ele>840.032</ele>
        <time>2014-05-25T14:29:52Z</time>
      </trkpt>
      <trkpt lat="46.18122" lon="4.59212">
        <ele>839.268</ele>
        <time>2014-05-25T14:29:56Z</time>
      </trkpt>
      <trkpt lat="46.18124" lon="4.5922">
        <ele>838.232</ele>
        <time>2014-05-25T14:30:01Z</time>
      </trkpt>
      <trkpt lat="46.18125" lon="4.59233">
        <ele>836.952</ele>
        <time>2014-05-25T14:30:09Z</time>
      </trkpt>
      <trkpt lat="46.18129" lon="4.59245">
        <ele>836.657</ele>
        <time>2014-05-25T14:30:17Z</time>
      </trkpt>
      <trkpt lat="46.18133" lon="4.59255">
        <ele>836.449</ele>
        <time>2014-05-25T14:30:23Z</time>
      </trkpt>
      <trkpt lat="46.18138" lon="4.59258">
        <ele>836.501</ele>
        <time>2014-05-25T14:30:26Z</time>
      </trkpt>
      <trkpt lat="46.18138" lon="4.59264">
        <ele>836.217</ele>
        <time>2014-05-25T14:30:29Z</time>
      </trkpt>
      <trkpt lat="46.18138" lon="4.59269">
        <ele>836.58</ele>
        <time>2014-05-25T14:30:32Z</time>
      </trkpt>
      <trkpt lat="46.18139" lon="4.59277">
        <ele>836.269</ele>
        <time>2014-05-25T14:30:36Z</time>
      </trkpt>
      <trkpt lat="46.18142" lon="4.59296">
        <ele>835.62</ele>
        <time>2014-05-25T14:30:52Z</time>
      </trkpt>
      <trkpt lat="46.18142" lon="4.59299">
        <ele>835.785</ele>
        <time>2014-05-25T14:30:54Z</time>
      </trkpt>
      <trkpt lat="46.18143" lon="4.59314">
        <ele>834.792</ele>
        <time>2014-05-25T14:31:03Z</time>
      </trkpt>
      <trkpt lat="46.18145" lon="4.59326">
        <ele>834.511</ele>
        <time>2014-05-25T14:31:11Z</time>
      </trkpt>
      <trkpt lat="46.18145" lon="4.59335">
        <ele>834.32</ele>
        <time>2014-05-25T14:31:16Z</time>
      </trkpt>
      <trkpt lat="46.18154" lon="4.59355">
        <ele>833.852</ele>
        <time>2014-05-25T14:31:31Z</time>
      </trkpt>
      <trkpt lat="46.18159" lon="4.59374">
        <ele>833.75</ele>
        <time>2014-05-25T14:31:43Z</time>
      </trkpt>
      <trkpt lat="46.18161" lon="4.59383">
        <ele>833.266</ele>
        <time>2014-05-25T14:31:50Z</time>
      </trkpt>
      <trkpt lat="46.18164" lon="4.59386">
        <ele>833.439</ele>
        <time>2014-05-25T14:31:53Z</time>
      </trkpt>
      <trkpt lat="46.18167" lon="4.59392">
        <ele>833.751</ele>
        <time>2014-05-25T14:31:57Z</time>
      </trkpt>
      <trkpt lat="46.18172" lon="4.59403">
        <ele>834.781</ele>
        <time>2014-05-25T14:32:05Z</time>
      </trkpt>
      <trkpt lat="46.18175" lon="4.59412">
        <ele>835.298</ele>
        <time>2014-05-25T14:32:12Z</time>
      </trkpt>
      <trkpt lat="46.18175" lon="4.59417">
        <ele>836.009</ele>
        <time>2014-05-25T14:32:16Z</time>
      </trkpt>
      <trkpt lat="46.18175" lon="4.59424">
        <ele>835.502</ele>
        <time>2014-05-25T14:32:20Z</time>
      </trkpt>
      <trkpt lat="46.18174" lon="4.59429">
        <ele>836.047</ele>
        <time>2014-05-25T14:32:23Z</time>
      </trkpt>
      <trkpt lat="46.18174" lon="4.59433">
        <ele>835.823</ele>
        <time>2014-05-25T14:32:26Z</time>
      </trkpt>
      <trkpt lat="46.18175" lon="4.59437">
        <ele>836.058</ele>
        <time>2014-05-25T14:32:29Z</time>
      </trkpt>
      <trkpt lat="46.18181" lon="4.59448">
        <ele>836.541</ele>
        <time>2014-05-25T14:32:38Z</time>
      </trkpt>
      <trkpt lat="46.18183" lon="4.59454">
        <ele>836.558</ele>
        <time>2014-05-25T14:32:43Z</time>
      </trkpt>
      <trkpt lat="46.18183" lon="4.59458">
        <ele>836.817</ele>
        <time>2014-05-25T14:32:47Z</time>
      </trkpt>
      <trkpt lat="46.18188" lon="4.59477">
        <ele>837.973</ele>
        <time>2014-05-25T14:33:03Z</time>
      </trkpt>
      <trkpt lat="46.18186" lon="4.59485">
        <ele>838.228</ele>
        <time>2014-05-25T14:33:08Z</time>
      </trkpt>
      <trkpt lat="46.18185" lon="4.59495">
        <ele>837.813</ele>
        <time>2014-05-25T14:33:15Z</time>
      </trkpt>
      <trkpt lat="46.18182" lon="4.5952">
        <ele>837.054</ele>
        <time>2014-05-25T14:33:30Z</time>
      </trkpt>
      <trkpt lat="46.18181" lon="4.5953">
        <ele>836.601</ele>
        <time>2014-05-25T14:33:37Z</time>
      </trkpt>
      <trkpt lat="46.18181" lon="4.59538">
        <ele>836.423</ele>
        <time>2014-05-25T14:33:43Z</time>
      </trkpt>
      <trkpt lat="46.1818" lon="4.5955">
        <ele>836.175</ele>
        <time>2014-05-25T14:33:54Z</time>
      </trkpt>
      <trkpt lat="46.18179" lon="4.59561">
        <ele>835.934</ele>
        <time>2014-05-25T14:35:08Z</time>
      </trkpt>
      <trkpt lat="46.18182" lon="4.59574">
        <ele>835.449</ele>
        <time>2014-05-25T14:35:14Z</time>
      </trkpt>
      <trkpt lat="46.18182" lon="4.59586">
        <ele>834.932</ele>
        <time>2014-05-25T14:35:20Z</time>
      </trkpt>
      <trkpt lat="46.18184" lon="4.59599">
        <ele>834.162</ele>
        <time>2014-05-25T14:35:27Z</time>
      </trkpt>
      <trkpt lat="46.18186" lon="4.59617">
        <ele>833.342</ele>
        <time>2014-05-25T14:35:36Z</time>
      </trkpt>
      <trkpt lat="46.18187" lon="4.59621">
        <ele>832.959</ele>
        <time>2014-05-25T14:35:38Z</time>
      </trkpt>
      <trkpt lat="46.18188" lon="4.5963">
        <ele>833.114</ele>
        <time>2014-05-25T14:35:43Z</time>
      </trkpt>
      <trkpt lat="46.18189" lon="4.59637">
        <ele>832.74</ele>
        <time>2014-05-25T14:35:48Z</time>
      </trkpt>
      <trkpt lat="46.1819" lon="4.59648">
        <ele>832.562</ele>
        <time>2014-05-25T14:35:55Z</time>
      </trkpt>
      <trkpt lat="46.18191" lon="4.59662">
        <ele>832.421</ele>
        <time>2014-05-25T14:36:03Z</time>
      </trkpt>
      <trkpt lat="46.18203" lon="4.59683">
        <ele>833.154</ele>
        <time>2014-05-25T14:36:17Z</time>
      </trkpt>
      <trkpt lat="46.18211" lon="4.59699">
        <ele>833.902</ele>
        <time>2014-05-25T14:36:29Z</time>
      </trkpt>
      <trkpt lat="46.18227" lon="4.59732">
        <ele>833.206</ele>
        <time>2014-05-25T14:36:49Z</time>
      </trkpt>
      <trkpt lat="46.18229" lon="4.59745">
        <ele>832.164</ele>
        <time>2014-05-25T14:36:55Z</time>
      </trkpt>
      <trkpt lat="46.18227" lon="4.59767">
        <ele>830.89</ele>
        <time>2014-05-25T14:37:05Z</time>
      </trkpt>
      <trkpt lat="46.18224" lon="4.59774">
        <ele>830.273</ele>
        <time>2014-05-25T14:37:12Z</time>
      </trkpt>
      <trkpt lat="46.18218" lon="4.598">
        <ele>829.21</ele>
        <time>2014-05-25T14:37:27Z</time>
      </trkpt>
      <trkpt lat="46.18221" lon="4.59812">
        <ele>828.819</ele>
        <time>2014-05-25T14:37:34Z</time>
      </trkpt>
      <trkpt lat="46.18221" lon="4.59815">
        <ele>828.906</ele>
        <time>2014-05-25T14:37:36Z</time>
      </trkpt>
      <trkpt lat="46.18221" lon="4.59831">
        <ele>828.08</ele>
        <time>2014-05-25T14:37:44Z</time>
      </trkpt>
      <trkpt lat="46.1822" lon="4.59838">
        <ele>827.913</ele>
        <time>2014-05-25T14:37:48Z</time>
      </trkpt>
      <trkpt lat="46.1822" lon="4.59845">
        <ele>828.297</ele>
        <time>2014-05-25T14:37:52Z</time>
      </trkpt>
      <trkpt lat="46.18219" lon="4.59861">
        <ele>827.189</ele>
        <time>2014-05-25T14:38:01Z</time>
      </trkpt>
      <trkpt lat="46.18218" lon="4.59867">
        <ele>827.655</ele>
        <time>2014-05-25T14:38:04Z</time>
      </trkpt>
      <trkpt lat="46.18217" lon="4.5987">
        <ele>827.324</ele>
        <time>2014-05-25T14:38:06Z</time>
      </trkpt>
      <trkpt lat="46.18217" lon="4.59879">
        <ele>827.458</ele>
        <time>2014-05-25T14:38:11Z</time>
      </trkpt>
      <trkpt lat="46.18216" lon="4.59889">
        <ele>827.271</ele>
        <time>2014-05-25T14:38:17Z</time>
      </trkpt>
      <trkpt lat="46.18218" lon="4.59896">
        <ele>826.828</ele>
        <time>2014-05-25T14:38:21Z</time>
      </trkpt>
      <trkpt lat="46.1822" lon="4.59909">
        <ele>826.555</ele>
        <time>2014-05-25T14:38:30Z</time>
      </trkpt>
      <trkpt lat="46.18224" lon="4.59948">
        <ele>826.171</ele>
        <time>2014-05-25T14:38:52Z</time>
      </trkpt>
      <trkpt lat="46.18222" lon="4.59971">
        <ele>825.894</ele>
        <time>2014-05-25T14:39:07Z</time>
      </trkpt>
      <trkpt lat="46.18221" lon="4.59974">
        <ele>825.811</ele>
        <time>2014-05-25T14:39:10Z</time>
      </trkpt>
      <trkpt lat="46.1822" lon="4.59979">
        <ele>826.115</ele>
        <time>2014-05-25T14:39:12Z</time>
      </trkpt>
      <trkpt lat="46.18218" lon="4.59982">
        <ele>826.267</ele>
        <time>2014-05-25T14:39:15Z</time>
      </trkpt>
      <trkpt lat="46.18216" lon="4.59988">
        <ele>826.216</ele>
        <time>2014-05-25T14:39:19Z</time>
      </trkpt>
      <trkpt lat="46.18212" lon="4.60013">
        <ele>826.677</ele>
        <time>2014-05-25T14:39:33Z</time>
      </trkpt>
      <trkpt lat="46.1821" lon="4.60016">
        <ele>826.556</ele>
        <time>2014-05-25T14:39:36Z</time>
      </trkpt>
      <trkpt lat="46.18207" lon="4.60027">
        <ele>826.792</ele>
        <time>2014-05-25T14:39:41Z</time>
      </trkpt>
      <trkpt lat="46.18207" lon="4.60033">
        <ele>826.891</ele>
        <time>2014-05-25T14:39:45Z</time>
      </trkpt>
      <trkpt lat="46.18207" lon="4.60037">
        <ele>827.162</ele>
        <time>2014-05-25T14:39:47Z</time>
      </trkpt>
      <trkpt lat="46.18206" lon="4.60047">
        <ele>826.87</ele>
        <time>2014-05-25T14:40:02Z</time>
      </trkpt>
      <trkpt lat="46.18209" lon="4.60051">
        <ele>826.36</ele>
        <time>2014-05-25T14:40:47Z</time>
      </trkpt>
      <trkpt lat="46.18229" lon="4.60067">
        <ele>826.99</ele>
        <time>2014-05-25T14:41:05Z</time>
      </trkpt>
      <trkpt lat="46.18231" lon="4.60069">
        <ele>826.518</ele>
        <time>2014-05-25T14:41:07Z</time>
      </trkpt>
      <trkpt lat="46.18244" lon="4.60086">
        <ele>826.768</ele>
        <time>2014-05-25T14:41:23Z</time>
      </trkpt>
      <trkpt lat="46.18256" lon="4.60118">
        <ele>826.862</ele>
        <time>2014-05-25T14:41:45Z</time>
      </trkpt>
      <trkpt lat="46.18259" lon="4.6013">
        <ele>827.226</ele>
        <time>2014-05-25T14:41:53Z</time>
      </trkpt>
      <trkpt lat="46.18263" lon="4.60148">
        <ele>827.685</ele>
        <time>2014-05-25T14:42:09Z</time>
      </trkpt>
      <trkpt lat="46.18265" lon="4.6016">
        <ele>828.176</ele>
        <time>2014-05-25T14:42:20Z</time>
      </trkpt>
      <trkpt lat="46.18267" lon="4.60167">
        <ele>828.627</ele>
        <time>2014-05-25T14:42:25Z</time>
      </trkpt>
      <trkpt lat="46.18268" lon="4.60187">
        <ele>829.581</ele>
        <time>2014-05-25T14:42:39Z</time>
      </trkpt>
      <trkpt lat="46.18273" lon="4.60213">
        <ele>830.372</ele>
        <time>2014-05-25T14:42:58Z</time>
      </trkpt>
      <trkpt lat="46.18275" lon="4.6022">
        <ele>830.391</ele>
        <time>2014-05-25T14:43:04Z</time>
      </trkpt>
      <trkpt lat="46.18283" lon="4.60243">
        <ele>831.498</ele>
        <time>2014-05-25T14:43:20Z</time>
      </trkpt>
      <trkpt lat="46.18291" lon="4.60263">
        <ele>831.683</ele>
        <time>2014-05-25T14:43:35Z</time>
      </trkpt>
      <trkpt lat="46.1829" lon="4.60266">
        <ele>831.87</ele>
        <time>2014-05-25T14:43:37Z</time>
      </trkpt>
      <trkpt lat="46.18293" lon="4.60276">
        <ele>831.377</ele>
        <time>2014-05-25T14:43:44Z</time>
      </trkpt>
      <trkpt lat="46.18296" lon="4.60282">
        <ele>830.925</ele>
        <time>2014-05-25T14:43:49Z</time>
      </trkpt>
      <trkpt lat="46.18303" lon="4.60301">
        <ele>830.945</ele>
        <time>2014-05-25T14:44:05Z</time>
      </trkpt>
      <trkpt lat="46.1831" lon="4.6032">
        <ele>831.444</ele>
        <time>2014-05-25T14:44:18Z</time>
      </trkpt>
      <trkpt lat="46.18313" lon="4.60325">
        <ele>831.245</ele>
        <time>2014-05-25T14:44:22Z</time>
      </trkpt>
      <trkpt lat="46.18325" lon="4.60349">
        <ele>831.683</ele>
        <time>2014-05-25T14:44:41Z</time>
      </trkpt>
      <trkpt lat="46.18333" lon="4.60368">
        <ele>832.376</ele>
        <time>2014-05-25T14:44:57Z</time>
      </trkpt>
      <trkpt lat="46.18345" lon="4.60385">
        <ele>831.913</ele>
        <time>2014-05-25T14:45:15Z</time>
      </trkpt>
      <trkpt lat="46.18353" lon="4.60407">
        <ele>831.677</ele>
        <time>2014-05-25T14:45:31Z</time>
      </trkpt>
      <trkpt lat="46.18354" lon="4.6041">
        <ele>832.068</ele>
        <time>2014-05-25T14:45:33Z</time>
      </trkpt>
      <trkpt lat="46.18354" lon="4.60416">
        <ele>831.922</ele>
        <time>2014-05-25T14:45:35Z</time>
      </trkpt>
      <trkpt lat="46.18364" lon="4.60438">
        <ele>831.59</ele>
        <time>2014-05-25T14:45:52Z</time>
      </trkpt>
      <trkpt lat="46.18369" lon="4.60454">
        <ele>831.647</ele>
        <time>2014-05-25T14:46:03Z</time>
      </trkpt>
      <trkpt lat="46.18378" lon="4.60478">
        <ele>830.774</ele>
        <time>2014-05-25T14:46:18Z</time>
      </trkpt>
      <trkpt lat="46.18381" lon="4.60485">
        <ele>830.544</ele>
        <time>2014-05-25T14:46:22Z</time>
      </trkpt>
      <trkpt lat="46.18383" lon="4.60493">
        <ele>830.669</ele>
        <time>2014-05-25T14:46:26Z</time>
      </trkpt>
      <trkpt lat="46.18386" lon="4.60514">
        <ele>830.245</ele>
        <time>2014-05-25T14:46:48Z</time>
      </trkpt>
      <trkpt lat="46.18384" lon="4.60521">
        <ele>830.186</ele>
        <time>2014-05-25T14:47:21Z</time>
      </trkpt>
      <trkpt lat="46.18385" lon="4.60538">
        <ele>829.932</ele>
        <time>2014-05-25T14:47:37Z</time>
      </trkpt>
      <trkpt lat="46.18385" lon="4.60544">
        <ele>829.733</ele>
        <time>2014-05-25T14:47:46Z</time>
      </trkpt>
      <trkpt lat="46.18385" lon="4.60549">
        <ele>828.45</ele>
        <time>2014-05-25T14:48:02Z</time>
      </trkpt>
      <trkpt lat="46.18387" lon="4.60552">
        <ele>829.868</ele>
        <time>2014-05-25T14:48:20Z</time>
      </trkpt>
      <trkpt lat="46.18388" lon="4.60561">
        <ele>829.857</ele>
        <time>2014-05-25T14:48:24Z</time>
      </trkpt>
      <trkpt lat="46.18389" lon="4.60573">
        <ele>829.645</ele>
        <time>2014-05-25T14:48:30Z</time>
      </trkpt>
      <trkpt lat="46.18391" lon="4.6058">
        <ele>829.391</ele>
        <time>2014-05-25T14:48:34Z</time>
      </trkpt>
      <trkpt lat="46.18391" lon="4.60591">
        <ele>829.642</ele>
        <time>2014-05-25T14:48:40Z</time>
      </trkpt>
      <trkpt lat="46.18397" lon="4.60629">
        <ele>829.245</ele>
        <time>2014-05-25T14:49:00Z</time>
      </trkpt>
      <trkpt lat="46.18405" lon="4.60663">
        <ele>828.722</ele>
        <time>2014-05-25T14:49:21Z</time>
      </trkpt>
      <trkpt lat="46.18415" lon="4.60688">
        <ele>828.007</ele>
        <time>2014-05-25T14:49:46Z</time>
      </trkpt>
      <trkpt lat="46.18417" lon="4.6069">
        <ele>827.034</ele>
        <time>2014-05-25T14:49:58Z</time>
      </trkpt>
      <trkpt lat="46.18428" lon="4.60727">
        <ele>827.188</ele>
        <time>2014-05-25T14:50:20Z</time>
      </trkpt>
      <trkpt lat="46.18426" lon="4.60754">
        <ele>826.564</ele>
        <time>2014-05-25T14:50:38Z</time>
      </trkpt>
      <trkpt lat="46.18425" lon="4.60758">
        <ele>826.44</ele>
        <time>2014-05-25T14:50:41Z</time>
      </trkpt>
      <trkpt lat="46.1842" lon="4.60795">
        <ele>825.624</ele>
        <time>2014-05-25T14:51:04Z</time>
      </trkpt>
      <trkpt lat="46.18419" lon="4.60801">
        <ele>825.497</ele>
        <time>2014-05-25T14:51:08Z</time>
      </trkpt>
      <trkpt lat="46.18418" lon="4.60812">
        <ele>826.004</ele>
        <time>2014-05-25T14:51:14Z</time>
      </trkpt>
      <trkpt lat="46.18417" lon="4.60833">
        <ele>825.842</ele>
        <time>2014-05-25T14:51:26Z</time>
      </trkpt>
      <trkpt lat="46.1842" lon="4.60859">
        <ele>826.433</ele>
        <time>2014-05-25T14:51:42Z</time>
      </trkpt>
      <trkpt lat="46.18431" lon="4.60893">
        <ele>825.321</ele>
        <time>2014-05-25T14:52:04Z</time>
      </trkpt>
      <trkpt lat="46.18435" lon="4.60906">
        <ele>825.676</ele>
        <time>2014-05-25T14:52:14Z</time>
      </trkpt>
      <trkpt lat="46.1844" lon="4.60913">
        <ele>825.386</ele>
        <time>2014-05-25T14:52:34Z</time>
      </trkpt>
      <trkpt lat="46.18449" lon="4.60927">
        <ele>824.905</ele>
        <time>2014-05-25T14:52:51Z</time>
      </trkpt>
      <trkpt lat="46.1846" lon="4.60932">
        <ele>824.852</ele>
        <time>2014-05-25T14:53:55Z</time>
      </trkpt>
      <trkpt lat="46.1847" lon="4.60942">
        <ele>824.85</ele>
        <time>2014-05-25T14:54:09Z</time>
      </trkpt>
      <trkpt lat="46.18495" lon="4.60959">
        <ele>824.687</ele>
        <time>2014-05-25T14:54:31Z</time>
      </trkpt>
      <trkpt lat="46.18502" lon="4.60973">
        <ele>823.947</ele>
        <time>2014-05-25T14:54:45Z</time>
      </trkpt>
      <trkpt lat="46.18516" lon="4.60998">
        <ele>823.14</ele>
        <time>2014-05-25T14:55:04Z</time>
      </trkpt>
      <trkpt lat="46.18533" lon="4.61032">
        <ele>822.49</ele>
        <time>2014-05-25T14:55:28Z</time>
      </trkpt>
      <trkpt lat="46.18551" lon="4.61068">
        <ele>821.098</ele>
        <time>2014-05-25T14:55:54Z</time>
      </trkpt>
      <trkpt lat="46.18559" lon="4.61095">
        <ele>819.524</ele>
        <time>2014-05-25T14:56:12Z</time>
      </trkpt>
      <trkpt lat="46.18571" lon="4.6113">
        <ele>818.342</ele>
        <time>2014-05-25T14:56:35Z</time>
      </trkpt>
      <trkpt lat="46.18575" lon="4.61149">
        <ele>817.358</ele>
        <time>2014-05-25T14:57:05Z</time>
      </trkpt>
      <trkpt lat="46.18585" lon="4.61172">
        <ele>816.461</ele>
        <time>2014-05-25T14:57:22Z</time>
      </trkpt>
      <trkpt lat="46.18586" lon="4.61175">
        <ele>816.464</ele>
        <time>2014-05-25T14:58:03Z</time>
      </trkpt>
      <trkpt lat="46.18592" lon="4.61194">
        <ele>815.462</ele>
        <time>2014-05-25T14:58:14Z</time>
      </trkpt>
      <trkpt lat="46.18595" lon="4.61201">
        <ele>814.992</ele>
        <time>2014-05-25T14:58:18Z</time>
      </trkpt>
      <trkpt lat="46.18597" lon="4.61208">
        <ele>814.591</ele>
        <time>2014-05-25T14:58:22Z</time>
      </trkpt>
      <trkpt lat="46.18598" lon="4.61211">
        <ele>814.017</ele>
        <time>2014-05-25T14:58:24Z</time>
      </trkpt>
      <trkpt lat="46.1861" lon="4.6123">
        <ele>810.715</ele>
        <time>2014-05-25T14:58:38Z</time>
      </trkpt>
      <trkpt lat="46.18625" lon="4.61246">
        <ele>809.232</ele>
        <time>2014-05-25T14:58:59Z</time>
      </trkpt>
      <trkpt lat="46.18642" lon="4.61267">
        <ele>806.118</ele>
        <time>2014-05-25T14:59:17Z</time>
      </trkpt>
      <trkpt lat="46.1866" lon="4.61291">
        <ele>803.014</ele>
        <time>2014-05-25T14:59:36Z</time>
      </trkpt>
      <trkpt lat="46.18681" lon="4.61312">
        <ele>800.45</ele>
        <time>2014-05-25T14:59:57Z</time>
      </trkpt>
      <trkpt lat="46.18693" lon="4.6133">
        <ele>798.877</ele>
        <time>2014-05-25T15:00:10Z</time>
      </trkpt>
      <trkpt lat="46.18713" lon="4.6135">
        <ele>796.612</ele>
        <time>2014-05-25T15:00:29Z</time>
      </trkpt>
      <trkpt lat="46.18723" lon="4.61355">
        <ele>795.73</ele>
        <time>2014-05-25T15:00:37Z</time>
      </trkpt>
      <trkpt lat="46.18739" lon="4.61365">
        <ele>794.659</ele>
        <time>2014-05-25T15:00:51Z</time>
      </trkpt>
      <trkpt lat="46.18746" lon="4.61367">
        <ele>793.909</ele>
        <time>2014-05-25T15:00:56Z</time>
      </trkpt>
      <trkpt lat="46.18755" lon="4.61368">
        <ele>793.241</ele>
        <time>2014-05-25T15:01:03Z</time>
      </trkpt>
      <trkpt lat="46.18757" lon="4.61369">
        <ele>792.66</ele>
        <time>2014-05-25T15:01:05Z</time>
      </trkpt>
      <trkpt lat="46.18779" lon="4.61383">
        <ele>790.105</ele>
        <time>2014-05-25T15:01:24Z</time>
      </trkpt>
      <trkpt lat="46.188" lon="4.61397">
        <ele>787.048</ele>
        <time>2014-05-25T15:01:43Z</time>
      </trkpt>
      <trkpt lat="46.18821" lon="4.6141">
        <ele>783.677</ele>
        <time>2014-05-25T15:02:02Z</time>
      </trkpt>
      <trkpt lat="46.18823" lon="4.61411">
        <ele>783.371</ele>
        <time>2014-05-25T15:02:04Z</time>
      </trkpt>
      <trkpt lat="46.18826" lon="4.61411">
        <ele>783.679</ele>
        <time>2014-05-25T15:02:07Z</time>
      </trkpt>
      <trkpt lat="46.18829" lon="4.61415">
        <ele>782.971</ele>
        <time>2014-05-25T15:02:10Z</time>
      </trkpt>
      <trkpt lat="46.18838" lon="4.61418">
        <ele>780.824</ele>
        <time>2014-05-25T15:02:18Z</time>
      </trkpt>
      <trkpt lat="46.18843" lon="4.61417">
        <ele>780.452</ele>
        <time>2014-05-25T15:02:24Z</time>
      </trkpt>
      <trkpt lat="46.1886" lon="4.61431">
        <ele>776.85</ele>
        <time>2014-05-25T15:02:43Z</time>
      </trkpt>
      <trkpt lat="46.18876" lon="4.61444">
        <ele>773.646</ele>
        <time>2014-05-25T15:02:59Z</time>
      </trkpt>
      <trkpt lat="46.18883" lon="4.61451">
        <ele>772.401</ele>
        <time>2014-05-25T15:03:07Z</time>
      </trkpt>
      <trkpt lat="46.18898" lon="4.61461">
        <ele>769.11</ele>
        <time>2014-05-25T15:03:23Z</time>
      </trkpt>
      <trkpt lat="46.18906" lon="4.61468">
        <ele>767.267</ele>
        <time>2014-05-25T15:03:39Z</time>
      </trkpt>
      <trkpt lat="46.18911" lon="4.61475">
        <ele>766.338</ele>
        <time>2014-05-25T15:03:45Z</time>
      </trkpt>
      <trkpt lat="46.1892" lon="4.61484">
        <ele>764.154</ele>
        <time>2014-05-25T15:03:56Z</time>
      </trkpt>
      <trkpt lat="46.18921" lon="4.61487">
        <ele>763.717</ele>
        <time>2014-05-25T15:03:58Z</time>
      </trkpt>
      <trkpt lat="46.18935" lon="4.61503">
        <ele>760.537</ele>
        <time>2014-05-25T15:04:14Z</time>
      </trkpt>
      <trkpt lat="46.18941" lon="4.61506">
        <ele>759.973</ele>
        <time>2014-05-25T15:04:20Z</time>
      </trkpt>
      <trkpt lat="46.18965" lon="4.61533">
        <ele>756.127</ele>
        <time>2014-05-25T15:04:46Z</time>
      </trkpt>
      <trkpt lat="46.18987" lon="4.6155">
        <ele>753.827</ele>
        <time>2014-05-25T15:05:08Z</time>
      </trkpt>
      <trkpt lat="46.19011" lon="4.6156">
        <ele>750.855</ele>
        <time>2014-05-25T15:05:42Z</time>
      </trkpt>
      <trkpt lat="46.19018" lon="4.61565">
        <ele>749.405</ele>
        <time>2014-05-25T15:06:57Z</time>
      </trkpt>
      <trkpt lat="46.19024" lon="4.6157">
        <ele>748.716</ele>
        <time>2014-05-25T15:07:15Z</time>
      </trkpt>
      <trkpt lat="46.1904" lon="4.61579">
        <ele>746.775</ele>
        <time>2014-05-25T15:07:30Z</time>
      </trkpt>
      <trkpt lat="46.19069" lon="4.61604">
        <ele>744.009</ele>
        <time>2014-05-25T15:07:59Z</time>
      </trkpt>
      <trkpt lat="46.19092" lon="4.61622">
        <ele>741.73</ele>
        <time>2014-05-25T15:08:22Z</time>
      </trkpt>
      <trkpt lat="46.1911" lon="4.61636">
        <ele>740.805</ele>
        <time>2014-05-25T15:08:42Z</time>
      </trkpt>
      <trkpt lat="46.19114" lon="4.61639">
        <ele>740.219</ele>
        <time>2014-05-25T15:08:47Z</time>
      </trkpt>
      <trkpt lat="46.19137" lon="4.61652">
        <ele>739.301</ele>
        <time>2014-05-25T15:09:08Z</time>
      </trkpt>
      <trkpt lat="46.19164" lon="4.61675">
        <ele>738.588</ele>
        <time>2014-05-25T15:09:36Z</time>
      </trkpt>
      <trkpt lat="46.19166" lon="4.61683">
        <ele>738.807</ele>
        <time>2014-05-25T15:09:55Z</time>
      </trkpt>
      <trkpt lat="46.19171" lon="4.61688">
        <ele>738.995</ele>
        <time>2014-05-25T15:10:39Z</time>
      </trkpt>
      <trkpt lat="46.19184" lon="4.61712">
        <ele>739.323</ele>
        <time>2014-05-25T15:11:00Z</time>
      </trkpt>
      <trkpt lat="46.19198" lon="4.6174">
        <ele>739.293</ele>
        <time>2014-05-25T15:11:21Z</time>
      </trkpt>
      <trkpt lat="46.19209" lon="4.6177">
        <ele>738.993</ele>
        <time>2014-05-25T15:11:41Z</time>
      </trkpt>
      <trkpt lat="46.1921" lon="4.61785">
        <ele>738.425</ele>
        <time>2014-05-25T15:11:58Z</time>
      </trkpt>
    </trkseg>
  </trk>
</gpx>